Time,TemperatureF,DewpointF,PressureIn,WindDirection,WindDirectionDegrees,WindSpeedMPH,WindSpeedGustMPH,Humidity,HourlyPrecipIn,Conditions,Clouds,dailyrainin,SolarRadiationWatts/m^2,SoftwareType,DateUTC
2013-01-17 00:02:00,31.0,27.9,30.12,WSW,243,1.1,2.2,88,0.00,,,0.00,0.00,VWS V14.01,2013-01-17 06:02:00,
2013-01-17 00:03:00,31.1,28.0,30.12,WSW,243,0.0,1.1,88,0.00,,,0.00,0.00,VWS V14.01,2013-01-17 06:03:00,
2013-01-17 00:04:00,31.1,27.7,30.12,WSW,244,2.2,2.2,87,0.00,,,0.00,0.00,VWS V14.01,2013-01-17 06:04:00,
2013-01-17 00:06:00,31.2,27.8,30.12,WSW,255,1.1,3.3,87,0.00,,,0.00,0.00,VWS V14.01,2013-01-17 06:06:00,
2013-01-17 00:08:00,31.3,27.9,30.12,WSW,255,1.1,3.3,87,0.00,,,0.00,0.00,VWS V14.01,2013-01-17 06:08:00,
2013-01-17 00:11:00,31.5,28.1,30.12,West,264,1.1,4.4,87,0.00,,,0.00,0.00,VWS V14.01,2013-01-17 06:11:00,
2013-01-17 00:13:00,31.6,28.2,30.12,West,275,4.4,4.4,87,0.00,,,0.00,0.00,VWS V14.01,2013-01-17 06:13:00,
2013-01-17 00:14:00,31.6,28.2,30.13,West,268,3.3,4.4,87,0.00,,,0.00,0.00,VWS V14.01,2013-01-17 06:14:00,
2013-01-17 00:16:00,31.7,28.3,30.13,West,276,2.2,3.3,87,0.00,,,0.00,0.00,VWS V14.01,2013-01-17 06:16:00,
2013-01-17 00:18:00,31.8,28.4,30.13,West,276,4.4,4.4,87,0.00,,,0.00,0.00,VWS V14.01,2013-01-17 06:18:00,
2013-01-17 00:19:00,31.8,28.4,30.13,West,276,2.2,5.5,87,0.00,,,0.00,0.00,VWS V14.01,2013-01-17 06:19:00,
2013-01-17 00:21:00,31.9,28.2,30.13,WNW,289,5.5,5.5,86,0.00,,,0.00,0.00,VWS V14.01,2013-01-17 06:21:00,
2013-01-17 00:23:00,31.9,28.2,30.13,WNW,292,1.1,3.3,86,0.00,,,0.00,0.00,VWS V14.01,2013-01-17 06:23:00,
2013-01-17 00:24:00,31.9,28.2,30.13,WNW,292,2.2,3.3,86,0.00,,,0.00,0.00,VWS V14.01,2013-01-17 06:24:00,
2013-01-17 00:26:00,31.9,28.2,30.13,WNW,288,5.5,5.5,86,0.00,,,0.00,0.00,VWS V14.01,2013-01-17 06:26:00,
2013-01-17 00:29:00,31.9,28.5,30.14,WNW,294,3.3,4.4,87,0.00,,,0.00,0.00,VWS V14.01,2013-01-17 06:29:00,
2013-01-17 00:30:00,31.9,28.5,30.14,WNW,299,3.3,4.4,87,0.00,,,0.00,0.00,VWS V14.01,2013-01-17 06:30:00,
2013-01-17 00:32:00,31.9,28.5,30.14,WNW,285,3.3,4.4,87,0.00,,,0.00,0.00,VWS V14.01,2013-01-17 06:32:00,
2013-01-17 00:34:00,32.0,28.6,30.14,WNW,289,2.2,4.4,87,0.00,,,0.00,0.00,VWS V14.01,2013-01-17 06:34:00,
2013-01-17 00:35:00,31.9,28.5,30.14,WNW,294,3.3,4.4,87,0.00,,,0.00,0.00,VWS V14.01,2013-01-17 06:35:00,
2013-01-17 00:37:00,31.9,28.2,30.14,WNW,301,3.3,3.3,86,0.00,,,0.00,0.00,VWS V14.01,2013-01-17 06:37:00,
2013-01-17 00:39:00,31.7,28.0,30.14,NW,305,4.4,4.4,86,0.00,,,0.00,0.00,VWS V14.01,2013-01-17 06:39:00,
2013-01-17 00:40:00,31.7,28.3,30.14,WNW,297,3.3,5.5,87,0.00,,,0.00,0.00,VWS V14.01,2013-01-17 06:40:00,
2013-01-17 00:42:00,31.6,28.2,30.14,NW,306,4.4,5.5,87,0.00,,,0.00,0.00,VWS V14.01,2013-01-17 06:42:00,
2013-01-17 00:45:00,31.6,28.2,30.14,WNW,299,2.2,4.4,87,0.00,,,0.00,0.00,VWS V14.01,2013-01-17 06:45:00,
2013-01-17 00:46:00,31.6,28.2,30.14,WNW,295,3.3,5.5,87,0.00,,,0.00,0.00,VWS V14.01,2013-01-17 06:46:00,
2013-01-17 00:48:00,31.7,28.3,30.14,WNW,297,3.3,5.5,87,0.00,,,0.00,0.00,VWS V14.01,2013-01-17 06:48:00,
2013-01-17 00:50:00,31.8,28.4,30.15,WNW,292,3.3,4.4,87,0.00,,,0.00,0.00,VWS V14.01,2013-01-17 06:50:00,
2013-01-17 00:52:00,31.9,28.5,30.15,WNW,287,1.1,6.6,87,0.00,,,0.00,0.00,VWS V14.01,2013-01-17 06:52:00,
2013-01-17 00:53:00,31.9,28.5,30.15,WNW,291,4.4,5.5,87,0.00,,,0.00,0.00,VWS V14.01,2013-01-17 06:53:00,
2013-01-17 00:54:00,31.9,28.5,30.15,WNW,287,4.4,5.5,87,0.00,,,0.00,0.00,VWS V14.01,2013-01-17 06:54:00,
2013-01-17 00:55:00,31.9,28.2,30.15,NW,304,2.2,5.5,86,0.00,,,0.00,0.00,VWS V14.01,2013-01-17 06:55:00,
2013-01-17 00:57:00,31.9,28.2,30.15,WNW,298,4.4,4.4,86,0.00,,,0.00,0.00,VWS V14.01,2013-01-17 06:57:00,
2013-01-17 00:59:00,31.8,28.1,30.15,WNW,290,4.4,5.5,86,0.00,,,0.00,0.00,VWS V14.01,2013-01-17 06:59:00,
2013-01-17 01:00:00,31.7,28.3,30.15,WNW,297,4.4,4.4,87,0.00,,,0.00,0.00,VWS V14.01,2013-01-17 07:00:00,
2013-01-17 01:04:00,31.5,28.1,30.15,WNW,287,3.3,3.3,87,0.00,,,0.00,0.00,VWS V14.01,2013-01-17 07:04:00,
2013-01-17 01:05:00,31.5,28.1,30.15,WNW,288,4.4,4.4,87,0.00,,,0.00,0.00,VWS V14.01,2013-01-17 07:05:00,
2013-01-17 01:10:00,31.3,27.9,30.16,WNW,287,3.3,4.4,87,0.00,,,0.00,0.00,VWS V14.01,2013-01-17 07:10:00,
2013-01-17 01:11:00,31.3,27.9,30.17,WNW,286,3.3,3.3,87,0.00,,,0.00,0.00,VWS V14.01,2013-01-17 07:11:00,
2013-01-17 01:15:00,31.2,27.8,30.17,WNW,283,2.2,3.3,87,0.00,,,0.00,0.00,VWS V14.01,2013-01-17 07:15:00,
2013-01-17 01:16:00,31.2,28.1,30.17,WNW,283,1.1,2.2,88,0.00,,,0.00,0.00,VWS V14.01,2013-01-17 07:16:00,
2013-01-17 01:20:00,31.2,28.1,30.17,WNW,296,3.3,4.4,88,0.00,,,0.00,0.00,VWS V14.01,2013-01-17 07:20:00,
2013-01-17 01:22:00,31.1,28.0,30.17,WNW,299,4.4,5.5,88,0.00,,,0.00,0.00,VWS V14.01,2013-01-17 07:22:00,
2013-01-17 01:24:00,31.1,28.0,30.17,WNW,296,4.4,4.4,88,0.00,,,0.00,0.00,VWS V14.01,2013-01-17 07:24:00,
2013-01-17 01:25:00,31.1,28.0,30.17,WNW,296,2.2,4.4,88,0.00,,,0.00,0.00,VWS V14.01,2013-01-17 07:25:00,
2013-01-17 01:27:00,31.1,28.0,30.17,WNW,298,4.4,4.4,88,0.00,,,0.00,0.00,VWS V14.01,2013-01-17 07:27:00,
2013-01-17 01:30:00,31.2,28.1,30.17,NW,305,2.2,3.3,88,0.00,,,0.00,0.00,VWS V14.01,2013-01-17 07:30:00,
2013-01-17 01:32:00,31.2,28.1,30.17,WNW,297,1.1,5.5,88,0.00,,,0.00,0.00,VWS V14.01,2013-01-17 07:32:00,
2013-01-17 01:33:00,31.2,28.1,30.17,WNW,297,1.1,2.2,88,0.00,,,0.00,0.00,VWS V14.01,2013-01-17 07:33:00,
2013-01-17 01:35:00,31.2,28.1,30.17,WNW,297,2.2,2.2,88,0.00,,,0.00,0.00,VWS V14.01,2013-01-17 07:35:00,
2013-01-17 01:38:00,31.2,28.1,30.17,WNW,297,0.0,2.2,88,0.00,,,0.00,0.00,VWS V14.01,2013-01-17 07:38:00,
2013-01-17 01:40:00,31.2,28.1,30.17,WNW,296,1.1,2.2,88,0.00,,,0.00,0.00,VWS V14.01,2013-01-17 07:40:00,
2013-01-17 01:41:00,31.2,28.1,30.17,WNW,296,2.2,2.2,88,0.00,,,0.00,0.00,VWS V14.01,2013-01-17 07:41:00,
2013-01-17 01:43:00,31.2,28.1,30.17,WNW,296,1.1,2.2,88,0.00,,,0.00,0.00,VWS V14.01,2013-01-17 07:43:00,
2013-01-17 01:45:00,31.1,28.0,30.17,WNW,296,3.3,3.3,88,0.00,,,0.00,0.00,VWS V14.01,2013-01-17 07:45:00,
2013-01-17 01:46:00,31.1,28.0,30.17,WNW,296,1.1,3.3,88,0.00,,,0.00,0.00,VWS V14.01,2013-01-17 07:46:00,
2013-01-17 01:48:00,31.1,28.0,30.17,WNW,296,2.2,2.2,88,0.00,,,0.00,0.00,VWS V14.01,2013-01-17 07:48:00,
2013-01-17 01:51:00,31.0,27.9,30.17,WNW,298,2.2,4.4,88,0.00,,,0.00,0.00,VWS V14.01,2013-01-17 07:51:00,
2013-01-17 01:53:00,31.0,27.9,30.18,WNW,296,1.1,1.1,88,0.00,,,0.00,0.00,VWS V14.01,2013-01-17 07:53:00,
2013-01-17 01:56:00,31.1,28.0,30.18,WNW,283,2.2,4.4,88,0.00,,,0.00,0.00,VWS V14.01,2013-01-17 07:56:00,
2013-01-17 01:57:00,31.1,28.2,30.18,West,270,2.2,4.4,89,0.00,,,0.00,0.00,VWS V14.01,2013-01-17 07:57:00,
2013-01-17 01:58:00,31.2,28.3,30.18,WNW,284,5.5,5.5,89,0.00,,,0.00,0.00,VWS V14.01,2013-01-17 07:58:00,
2013-01-17 01:59:00,31.2,28.3,30.18,WNW,286,4.4,5.5,89,0.00,,,0.00,0.00,VWS V14.01,2013-01-17 07:59:00,
2013-01-17 02:01:00,31.3,28.4,30.18,WNW,291,4.4,4.4,89,0.00,,,0.00,0.00,VWS V14.01,2013-01-17 08:01:00,
2013-01-17 02:03:00,31.4,28.3,30.18,WNW,295,1.1,2.2,88,0.00,,,0.00,0.00,VWS V14.01,2013-01-17 08:03:00,
2013-01-17 02:04:00,31.4,28.5,30.18,West,279,4.4,4.4,89,0.00,,,0.00,0.00,VWS V14.01,2013-01-17 08:04:00,
2013-01-17 02:06:00,31.4,28.5,30.18,West,278,2.2,4.4,89,0.00,,,0.00,0.00,VWS V14.01,2013-01-17 08:06:00,
2013-01-17 02:08:00,31.4,28.5,30.18,WNW,286,4.4,4.4,89,0.00,,,0.00,0.00,VWS V14.01,2013-01-17 08:08:00,
2013-01-17 02:10:00,31.5,28.6,30.18,WNW,293,1.1,3.3,89,0.00,,,0.00,0.00,VWS V14.01,2013-01-17 08:10:00,
2013-01-17 02:11:00,31.5,28.6,30.18,WNW,298,3.3,4.4,89,0.00,,,0.00,0.00,VWS V14.01,2013-01-17 08:11:00,
2013-01-17 02:13:00,31.5,28.6,30.18,WNW,286,3.3,5.5,89,0.00,,,0.00,0.00,VWS V14.01,2013-01-17 08:13:00,
2013-01-17 02:15:00,31.5,28.6,30.18,WNW,295,2.2,4.4,89,0.00,,,0.00,0.00,VWS V14.01,2013-01-17 08:15:00,
2013-01-17 02:16:00,31.4,28.5,30.18,WNW,285,4.4,4.4,89,0.00,,,0.00,0.00,VWS V14.01,2013-01-17 08:16:00,
2013-01-17 02:18:00,31.5,28.6,30.19,West,277,3.3,4.4,89,0.00,,,0.00,0.00,VWS V14.01,2013-01-17 08:18:00,
2013-01-17 02:20:00,31.5,28.6,30.19,WNW,303,4.4,5.5,89,0.00,,,0.00,0.00,VWS V14.01,2013-01-17 08:20:00,
2013-01-17 02:21:00,31.5,28.6,30.19,WNW,303,3.3,5.5,89,0.00,,,0.00,0.00,VWS V14.01,2013-01-17 08:21:00,
2013-01-17 02:22:00,31.5,28.6,30.19,WNW,302,1.1,1.1,89,0.00,,,0.00,0.00,VWS V14.01,2013-01-17 08:22:00,
2013-01-17 02:25:00,31.4,28.5,30.18,WNW,285,5.5,5.5,89,0.00,,,0.00,0.00,VWS V14.01,2013-01-17 08:25:00,
2013-01-17 02:26:00,31.3,28.4,30.18,WNW,291,3.3,5.5,89,0.00,,,0.00,0.00,VWS V14.01,2013-01-17 08:26:00,
2013-01-17 02:27:00,31.3,28.4,30.18,WNW,295,2.2,3.3,89,0.00,,,0.00,0.00,VWS V14.01,2013-01-17 08:27:00,
2013-01-17 02:28:00,31.3,28.4,30.18,WNW,295,4.4,4.4,89,0.00,,,0.00,0.00,VWS V14.01,2013-01-17 08:28:00,
2013-01-17 02:31:00,31.1,28.2,30.19,WNW,297,2.2,4.4,89,0.00,,,0.00,0.00,VWS V14.01,2013-01-17 08:31:00,
2013-01-17 02:32:00,31.1,28.2,30.19,WNW,296,4.4,4.4,89,0.00,,,0.00,0.00,VWS V14.01,2013-01-17 08:32:00,
2013-01-17 02:33:00,31.1,28.2,30.19,WNW,285,1.1,4.4,89,0.00,,,0.00,0.00,VWS V14.01,2013-01-17 08:33:00,
2013-01-17 02:36:00,31.2,28.6,30.19,WNW,287,1.1,3.3,90,0.00,,,0.00,0.00,VWS V14.01,2013-01-17 08:36:00,
2013-01-17 02:38:00,31.2,28.3,30.19,WNW,292,2.2,2.2,89,0.00,,,0.00,0.00,VWS V14.01,2013-01-17 08:38:00,
2013-01-17 02:41:00,31.1,28.2,30.19,WNW,291,2.2,4.4,89,0.00,,,0.00,0.00,VWS V14.01,2013-01-17 08:41:00,
2013-01-17 02:43:00,31.0,28.1,30.20,West,278,3.3,3.3,89,0.00,,,0.00,0.00,VWS V14.01,2013-01-17 08:43:00,
2013-01-17 02:44:00,31.0,28.1,30.20,West,278,3.3,3.3,89,0.00,,,0.00,0.00,VWS V14.01,2013-01-17 08:44:00,
2013-01-17 02:47:00,30.8,28.0,30.19,West,278,0.0,1.1,89,0.00,,,0.00,0.00,VWS V14.01,2013-01-17 08:47:00,
2013-01-17 02:48:00,30.8,28.2,30.19,West,278,2.2,3.3,90,0.00,,,0.00,0.00,VWS V14.01,2013-01-17 08:48:00,
2013-01-17 02:49:00,30.7,28.1,30.19,West,278,2.2,3.3,90,0.00,,,0.00,0.00,VWS V14.01,2013-01-17 08:49:00,
2013-01-17 02:53:00,30.5,27.9,30.19,West,279,2.2,2.2,90,0.00,,,0.00,0.00,VWS V14.01,2013-01-17 08:53:00,
2013-01-17 02:54:00,30.4,27.8,30.19,West,279,3.3,3.3,90,0.00,,,0.00,0.00,VWS V14.01,2013-01-17 08:54:00,
2013-01-17 02:55:00,30.4,27.8,30.19,West,279,1.1,1.1,90,0.00,,,0.00,0.00,VWS V14.01,2013-01-17 08:55:00,
2013-01-17 02:59:00,30.2,27.6,30.20,WNW,291,2.2,3.3,90,0.00,,,0.00,0.00,VWS V14.01,2013-01-17 08:59:00,
2013-01-17 03:00:00,30.2,27.9,30.20,WNW,292,2.2,4.4,91,0.00,,,0.00,0.00,VWS V14.01,2013-01-17 09:00:00,
2013-01-17 03:01:00,30.2,27.9,30.20,WNW,293,1.1,2.2,91,0.00,,,0.00,0.00,VWS V14.01,2013-01-17 09:01:00,
2013-01-17 03:04:00,30.0,27.7,30.20,WNW,297,2.2,2.2,91,0.00,,,0.00,0.00,VWS V14.01,2013-01-17 09:04:00,
2013-01-17 03:05:00,30.0,27.7,30.20,WNW,297,2.2,2.2,91,0.00,,,0.00,0.00,VWS V14.01,2013-01-17 09:05:00,
2013-01-17 03:07:00,29.8,27.2,30.20,NW,312,3.3,4.4,90,0.00,,,0.00,0.00,VWS V14.01,2013-01-17 09:07:00,
2013-01-17 03:09:00,29.7,27.4,30.20,NW,322,5.5,5.5,91,0.00,,,0.00,0.00,VWS V14.01,2013-01-17 09:09:00,
2013-01-17 03:11:00,29.6,27.3,30.20,NW,326,3.3,4.4,91,0.00,,,0.00,0.00,VWS V14.01,2013-01-17 09:11:00,
2013-01-17 03:12:00,29.5,27.2,30.20,NNW,329,2.2,3.3,91,0.00,,,0.00,0.00,VWS V14.01,2013-01-17 09:12:00,
2013-01-17 03:15:00,29.3,27.0,30.20,NW,326,3.3,4.4,91,0.00,,,0.00,0.00,VWS V14.01,2013-01-17 09:15:00,
2013-01-17 03:16:00,29.2,26.9,30.20,NW,324,4.4,4.4,91,0.00,,,0.00,0.00,VWS V14.01,2013-01-17 09:16:00,
2013-01-17 03:17:00,29.2,26.9,30.20,NW,325,2.2,4.4,91,0.00,,,0.00,0.00,VWS V14.01,2013-01-17 09:17:00,
2013-01-17 03:18:00,29.1,26.8,30.20,NW,324,2.2,4.4,91,0.00,,,0.00,0.00,VWS V14.01,2013-01-17 09:18:00,
2013-01-17 03:20:00,28.9,26.6,30.20,NW,320,2.2,2.2,91,0.00,,,0.00,0.00,VWS V14.01,2013-01-17 09:20:00,
2013-01-17 03:22:00,28.9,26.9,30.20,NW,320,2.2,3.3,92,0.00,,,0.00,0.00,VWS V14.01,2013-01-17 09:22:00,
2013-01-17 03:23:00,28.9,26.9,30.20,NW,320,2.2,3.3,92,0.00,,,0.00,0.00,VWS V14.01,2013-01-17 09:23:00,
2013-01-17 03:26:00,28.8,26.8,30.20,NW,322,2.2,3.3,92,0.00,,,0.00,0.00,VWS V14.01,2013-01-17 09:26:00,
2013-01-17 03:27:00,28.8,26.8,30.20,NW,322,2.2,3.3,92,0.00,,,0.00,0.00,VWS V14.01,2013-01-17 09:27:00,
2013-01-17 03:28:00,28.7,26.7,30.20,NW,324,2.2,4.4,92,0.00,,,0.00,0.00,VWS V14.01,2013-01-17 09:28:00,
2013-01-17 03:32:00,28.5,26.5,30.20,NNW,332,2.2,5.5,92,0.00,,,0.00,0.00,VWS V14.01,2013-01-17 09:32:00,
2013-01-17 03:33:00,28.4,26.4,30.20,NNW,330,3.3,4.4,92,0.00,,,0.00,0.00,VWS V14.01,2013-01-17 09:33:00,
2013-01-17 03:34:00,28.4,26.4,30.20,NW,326,3.3,4.4,92,0.00,,,0.00,0.00,VWS V14.01,2013-01-17 09:34:00,
2013-01-17 03:37:00,28.3,26.3,30.20,NNW,328,2.2,2.2,92,0.00,,,0.00,0.00,VWS V14.01,2013-01-17 09:37:00,
2013-01-17 03:38:00,28.3,26.3,30.20,NNW,327,4.4,4.4,92,0.00,,,0.00,0.00,VWS V14.01,2013-01-17 09:38:00,
2013-01-17 03:40:00,28.3,26.3,30.21,NW,320,1.1,4.4,92,0.00,,,0.00,0.00,VWS V14.01,2013-01-17 09:40:00,
2013-01-17 03:43:00,28.3,26.3,30.20,NW,326,3.3,4.4,92,0.00,,,0.00,0.00,VWS V14.01,2013-01-17 09:43:00,
2013-01-17 03:45:00,28.3,26.3,30.21,NNW,332,4.4,4.4,92,0.00,,,0.00,0.00,VWS V14.01,2013-01-17 09:45:00,
2013-01-17 03:46:00,28.3,26.5,30.21,NNW,332,2.2,3.3,93,0.00,,,0.00,0.00,VWS V14.01,2013-01-17 09:46:00,
2013-01-17 03:48:00,28.3,26.3,30.21,NNW,327,3.3,4.4,92,0.00,,,0.00,0.00,VWS V14.01,2013-01-17 09:48:00,
2013-01-17 03:49:00,28.3,26.3,30.21,NNW,328,3.3,3.3,92,0.00,,,0.00,0.00,VWS V14.01,2013-01-17 09:49:00,
2013-01-17 03:51:00,28.4,26.6,30.21,NNW,329,2.2,5.5,93,0.00,,,0.00,0.00,VWS V14.01,2013-01-17 09:51:00,
2013-01-17 03:54:00,28.5,26.7,30.21,NW,323,2.2,5.5,93,0.00,,,0.00,0.00,VWS V14.01,2013-01-17 09:54:00,
2013-01-17 03:56:00,28.5,26.7,30.22,NW,326,3.3,4.4,93,0.00,,,0.00,0.00,VWS V14.01,2013-01-17 09:56:00,
2013-01-17 03:57:00,28.4,26.6,30.21,NNW,337,3.3,3.3,93,0.00,,,0.00,0.00,VWS V14.01,2013-01-17 09:57:00,
2013-01-17 03:59:00,28.4,26.6,30.22,NNW,337,4.4,7.7,93,0.00,,,0.00,0.00,VWS V14.01,2013-01-17 09:59:00,
2013-01-17 04:02:00,28.4,26.6,30.22,NW,314,1.1,5.5,93,0.00,,,0.00,0.00,VWS V14.01,2013-01-17 10:02:00,
2013-01-17 04:03:00,28.4,26.6,30.22,NNW,335,5.5,6.6,93,0.00,,,0.00,0.00,VWS V14.01,2013-01-17 10:03:00,
2013-01-17 04:04:00,28.5,26.7,30.22,NNW,341,4.4,8.8,93,0.00,,,0.00,0.00,VWS V14.01,2013-01-17 10:04:00,
2013-01-17 04:05:00,28.5,26.7,30.22,NNW,330,4.4,4.4,93,0.00,,,0.00,0.00,VWS V14.01,2013-01-17 10:05:00,
2013-01-17 04:07:00,28.5,26.7,30.22,NNW,339,4.4,5.5,93,0.00,,,0.00,0.00,VWS V14.01,2013-01-17 10:07:00,
2013-01-17 04:09:00,28.5,26.7,30.23,NNW,328,1.1,3.3,93,0.00,,,0.00,0.00,VWS V14.01,2013-01-17 10:09:00,
2013-01-17 04:10:00,28.5,26.7,30.23,NNW,342,2.2,3.3,93,0.00,,,0.00,0.00,VWS V14.01,2013-01-17 10:10:00,
2013-01-17 04:12:00,28.6,26.8,30.23,NNW,332,2.2,5.5,93,0.00,,,0.00,0.00,VWS V14.01,2013-01-17 10:12:00,
2013-01-17 04:15:00,28.5,26.7,30.23,North,354,3.3,3.3,93,0.00,,,0.00,0.00,VWS V14.01,2013-01-17 10:15:00,
2013-01-17 04:16:00,28.5,26.7,30.23,NNW,345,3.3,3.3,93,0.00,,,0.00,0.00,VWS V14.01,2013-01-17 10:16:00,
2013-01-17 04:17:00,28.5,26.5,30.23,NNW,330,2.2,3.3,92,0.00,,,0.00,0.00,VWS V14.01,2013-01-17 10:17:00,
2013-01-17 04:18:00,28.5,26.5,30.23,NNW,329,3.3,4.4,92,0.00,,,0.00,0.00,VWS V14.01,2013-01-17 10:18:00,
2013-01-17 04:20:00,28.4,26.4,30.23,NNW,329,1.1,4.4,92,0.00,,,0.00,0.00,VWS V14.01,2013-01-17 10:20:00,
2013-01-17 04:22:00,28.3,26.3,30.23,NNW,328,3.3,4.4,92,0.00,,,0.00,0.00,VWS V14.01,2013-01-17 10:22:00,
2013-01-17 04:23:00,28.2,26.2,30.23,NNW,328,2.2,3.3,92,0.00,,,0.00,0.00,VWS V14.01,2013-01-17 10:23:00,
2013-01-17 04:25:00,28.1,26.1,30.23,NNW,328,3.3,3.3,92,0.00,,,0.00,0.00,VWS V14.01,2013-01-17 10:25:00,
2013-01-17 04:27:00,28.2,26.4,30.23,NW,325,2.2,3.3,93,0.00,,,0.00,0.00,VWS V14.01,2013-01-17 10:27:00,
2013-01-17 04:29:00,28.1,26.3,30.23,NNW,330,3.3,4.4,93,0.00,,,0.00,0.00,VWS V14.01,2013-01-17 10:29:00,
2013-01-17 04:30:00,28.0,26.0,30.23,NW,324,5.5,5.5,92,0.00,,,0.00,0.00,VWS V14.01,2013-01-17 10:30:00,
2013-01-17 04:32:00,27.9,25.9,30.23,NNW,328,2.2,2.2,92,0.00,,,0.00,0.00,VWS V14.01,2013-01-17 10:32:00,
2013-01-17 04:34:00,27.8,25.8,30.23,NNW,328,4.4,6.6,92,0.00,,,0.00,0.00,VWS V14.01,2013-01-17 10:34:00,
2013-01-17 04:36:00,27.8,25.8,30.23,NW,322,5.5,5.5,92,0.00,,,0.00,0.00,VWS V14.01,2013-01-17 10:36:00,
2013-01-17 04:38:00,27.9,25.9,30.23,NNW,330,3.3,5.5,92,0.00,,,0.00,0.00,VWS V14.01,2013-01-17 10:38:00,
2013-01-17 04:39:00,27.9,26.1,30.23,NNW,335,6.6,6.6,93,0.00,,,0.00,0.00,VWS V14.01,2013-01-17 10:39:00,
2013-01-17 04:40:00,27.9,25.9,30.23,NNW,332,3.3,3.3,92,0.00,,,0.00,0.00,VWS V14.01,2013-01-17 10:40:00,
2013-01-17 04:42:00,27.9,25.9,30.23,NNW,337,3.3,3.3,92,0.00,,,0.00,0.00,VWS V14.01,2013-01-17 10:42:00,
2013-01-17 04:43:00,27.9,25.9,30.23,NW,319,3.3,4.4,92,0.00,,,0.00,0.00,VWS V14.01,2013-01-17 10:43:00,
2013-01-17 04:44:00,27.9,25.9,30.24,NNW,335,4.4,4.4,92,0.00,,,0.00,0.00,VWS V14.01,2013-01-17 10:44:00,
2013-01-17 04:46:00,27.9,25.9,30.24,NNW,329,3.3,3.3,92,0.00,,,0.00,0.00,VWS V14.01,2013-01-17 10:46:00,
2013-01-17 04:48:00,27.9,25.9,30.24,NNW,347,4.4,5.5,92,0.00,,,0.00,0.00,VWS V14.01,2013-01-17 10:48:00,
2013-01-17 04:50:00,27.9,25.9,30.24,NNW,336,3.3,4.4,92,0.00,,,0.00,0.00,VWS V14.01,2013-01-17 10:50:00,
2013-01-17 04:52:00,27.8,25.8,30.24,NNW,341,5.5,6.6,92,0.00,,,0.00,0.00,VWS V14.01,2013-01-17 10:52:00,
2013-01-17 04:53:00,27.8,25.8,30.24,NW,324,2.2,3.3,92,0.00,,,0.00,0.00,VWS V14.01,2013-01-17 10:53:00,
2013-01-17 04:55:00,27.8,25.8,30.24,NNW,335,4.4,7.7,92,0.00,,,0.00,0.00,VWS V14.01,2013-01-17 10:55:00,
2013-01-17 04:57:00,27.8,25.8,30.24,NW,314,5.5,5.5,92,0.00,,,0.00,0.00,VWS V14.01,2013-01-17 10:57:00,
2013-01-17 04:59:00,27.8,25.8,30.24,NNW,332,3.3,6.6,92,0.00,,,0.00,0.00,VWS V14.01,2013-01-17 10:59:00,
2013-01-17 05:00:00,27.8,25.8,30.24,NNW,335,4.4,4.4,92,0.00,,,0.00,0.00,VWS V14.01,2013-01-17 11:00:00,
2013-01-17 05:02:00,27.8,25.8,30.24,NW,320,5.5,8.8,92,0.00,,,0.00,0.00,VWS V14.01,2013-01-17 11:02:00,
2013-01-17 05:04:00,27.8,25.8,30.24,NNW,338,4.4,7.7,92,0.00,,,0.00,0.00,VWS V14.01,2013-01-17 11:04:00,
2013-01-17 05:05:00,27.8,25.8,30.24,NNW,348,6.6,6.6,92,0.00,,,0.00,0.00,VWS V14.01,2013-01-17 11:05:00,
2013-01-17 05:06:00,27.8,25.8,30.24,NW,325,5.5,7.7,92,0.00,,,0.00,0.00,VWS V14.01,2013-01-17 11:06:00,
2013-01-17 05:07:00,27.8,25.8,30.24,North,354,3.3,5.5,92,0.00,,,0.00,0.00,VWS V14.01,2013-01-17 11:07:00,
2013-01-17 05:09:00,27.8,25.8,30.24,NNW,334,2.2,5.5,92,0.00,,,0.00,0.00,VWS V14.01,2013-01-17 11:09:00,
2013-01-17 05:11:00,27.8,25.8,30.24,NW,322,4.4,5.5,92,0.00,,,0.00,0.00,VWS V14.01,2013-01-17 11:11:00,
2013-01-17 05:12:00,27.8,25.8,30.25,NNW,344,4.4,5.5,92,0.00,,,0.00,0.00,VWS V14.01,2013-01-17 11:12:00,
2013-01-17 05:14:00,27.7,25.4,30.25,NW,316,5.5,7.7,91,0.00,,,0.00,0.00,VWS V14.01,2013-01-17 11:14:00,
2013-01-17 05:16:00,27.7,25.4,30.25,NW,312,3.3,4.4,91,0.00,,,0.00,0.00,VWS V14.01,2013-01-17 11:16:00,
2013-01-17 05:18:00,27.8,25.5,30.25,NW,305,3.3,6.6,91,0.00,,,0.00,0.00,VWS V14.01,2013-01-17 11:18:00,
2013-01-17 05:19:00,27.8,25.5,30.25,NW,308,2.2,7.7,91,0.00,,,0.00,0.00,VWS V14.01,2013-01-17 11:19:00,
2013-01-17 05:22:00,27.8,25.5,30.25,NW,326,6.6,6.6,91,0.00,,,0.00,0.00,VWS V14.01,2013-01-17 11:22:00,
2013-01-17 05:24:00,27.7,25.4,30.25,NW,324,3.3,3.3,91,0.00,,,0.00,0.00,VWS V14.01,2013-01-17 11:24:00,
2013-01-17 05:25:00,27.7,25.4,30.25,NW,324,2.2,3.3,91,0.00,,,0.00,0.00,VWS V14.01,2013-01-17 11:25:00,
2013-01-17 05:27:00,27.6,25.3,30.25,NW,308,3.3,4.4,91,0.00,,,0.00,0.00,VWS V14.01,2013-01-17 11:27:00,
2013-01-17 05:29:00,27.6,25.3,30.26,NW,317,2.2,4.4,91,0.00,,,0.00,0.00,VWS V14.01,2013-01-17 11:29:00,
2013-01-17 05:30:00,27.6,25.3,30.26,NW,317,3.3,4.4,91,0.00,,,0.00,0.00,VWS V14.01,2013-01-17 11:30:00,
2013-01-17 05:32:00,27.6,25.1,30.26,NW,326,3.3,5.5,90,0.00,,,0.00,0.00,VWS V14.01,2013-01-17 11:32:00,
2013-01-17 05:33:00,27.6,25.1,30.26,NW,326,3.3,5.5,90,0.00,,,0.00,0.00,VWS V14.01,2013-01-17 11:33:00,
2013-01-17 05:35:00,27.5,25.0,30.26,NW,319,3.3,4.4,90,0.00,,,0.00,0.00,VWS V14.01,2013-01-17 11:35:00,
2013-01-17 05:38:00,27.4,24.9,30.27,NW,309,3.3,4.4,90,0.00,,,0.00,0.00,VWS V14.01,2013-01-17 11:38:00,
2013-01-17 05:40:00,27.3,24.5,30.27,NW,325,5.5,5.5,89,0.00,,,0.00,0.00,VWS V14.01,2013-01-17 11:40:00,
2013-01-17 05:43:00,27.2,24.4,30.27,NW,323,4.4,4.4,89,0.00,,,0.00,0.00,VWS V14.01,2013-01-17 11:43:00,
2013-01-17 05:44:00,27.1,24.3,30.27,NNW,343,4.4,7.7,89,0.00,,,0.00,0.00,VWS V14.01,2013-01-17 11:44:00,
2013-01-17 05:45:00,27.0,24.2,30.27,NNW,327,5.5,6.6,89,0.00,,,0.00,0.00,VWS V14.01,2013-01-17 11:45:00,
2013-01-17 05:48:00,26.9,23.8,30.27,NNW,346,6.6,7.7,88,0.00,,,0.00,0.00,VWS V14.01,2013-01-17 11:48:00,
2013-01-17 05:50:00,26.9,24.1,30.27,North,354,7.7,9.9,89,0.00,,,0.00,0.00,VWS V14.01,2013-01-17 11:50:00,
2013-01-17 05:51:00,26.9,23.8,30.27,NNW,328,5.5,7.7,88,0.00,,,0.00,0.00,VWS V14.01,2013-01-17 11:51:00,
2013-01-17 05:53:00,27.1,23.8,30.27,NW,314,5.5,7.7,87,0.00,,,0.00,0.00,VWS V14.01,2013-01-17 11:53:00,
2013-01-17 05:55:00,27.2,23.6,30.27,NNW,339,6.6,7.7,86,0.00,,,0.00,0.00,VWS V14.01,2013-01-17 11:55:00,
2013-01-17 05:56:00,27.2,23.3,30.27,NW,312,3.3,5.5,85,0.00,,,0.00,0.00,VWS V14.01,2013-01-17 11:56:00,
2013-01-17 05:57:00,27.2,23.3,30.27,NW,309,7.7,7.7,85,0.00,,,0.00,0.00,VWS V14.01,2013-01-17 11:57:00,
2013-01-17 05:59:00,27.2,23.0,30.27,NW,322,6.6,6.6,84,0.00,,,0.00,0.00,VWS V14.01,2013-01-17 11:59:00,
2013-01-17 06:00:00,27.2,23.0,30.27,NW,324,7.7,7.7,84,0.00,,,0.00,0.00,VWS V14.01,2013-01-17 12:00:00,
2013-01-17 06:02:00,27.2,23.0,30.27,NNW,330,6.6,9.9,84,0.00,,,0.00,0.00,VWS V14.01,2013-01-17 12:02:00,
2013-01-17 06:03:00,27.2,23.0,30.27,NNW,337,5.5,5.5,84,0.00,,,0.00,0.00,VWS V14.01,2013-01-17 12:03:00,
2013-01-17 06:04:00,27.2,22.7,30.27,NNW,343,8.8,9.9,83,0.00,,,0.00,0.00,VWS V14.01,2013-01-17 12:04:00,
2013-01-17 06:05:00,27.2,22.7,30.27,NNW,339,7.7,9.9,83,0.00,,,0.00,0.00,VWS V14.01,2013-01-17 12:05:00,
2013-01-17 06:08:00,27.2,22.4,30.27,North,4,4.4,9.9,82,0.00,,,0.00,0.00,VWS V14.01,2013-01-17 12:08:00,
2013-01-17 06:09:00,27.1,22.4,30.27,NNW,339,5.5,9.9,82,0.00,,,0.00,0.00,VWS V14.01,2013-01-17 12:09:00,
2013-01-17 06:11:00,27.0,22.2,30.28,NNW,344,5.5,8.8,82,0.00,,,0.00,0.00,VWS V14.01,2013-01-17 12:11:00,
2013-01-17 06:13:00,27.0,22.2,30.28,NNW,347,4.4,6.6,82,0.00,,,0.00,0.00,VWS V14.01,2013-01-17 12:13:00,
2013-01-17 06:14:00,26.9,21.9,30.29,North,359,9.9,9.9,81,0.00,,,0.00,0.00,VWS V14.01,2013-01-17 12:14:00,
2013-01-17 06:15:00,26.9,21.9,30.29,North,4,7.7,7.7,81,0.00,,,0.00,0.00,VWS V14.01,2013-01-17 12:15:00,
2013-01-17 06:16:00,26.9,21.9,30.29,NNW,344,6.6,9.9,81,0.00,,,0.00,0.00,VWS V14.01,2013-01-17 12:16:00,
2013-01-17 06:19:00,26.7,21.7,30.29,NNW,345,7.7,7.7,81,0.00,,,0.00,0.00,VWS V14.01,2013-01-17 12:19:00,
2013-01-17 06:20:00,26.7,21.7,30.29,North,354,6.6,7.7,81,0.00,,,0.00,0.00,VWS V14.01,2013-01-17 12:20:00,
2013-01-17 06:21:00,26.6,21.6,30.29,NNW,343,5.5,6.6,81,0.00,,,0.00,0.00,VWS V14.01,2013-01-17 12:21:00,
2013-01-17 06:25:00,26.4,21.4,30.29,North,354,6.6,8.8,81,0.00,,,0.00,0.00,VWS V14.01,2013-01-17 12:25:00,
2013-01-17 06:26:00,26.3,21.3,30.29,NNW,335,8.8,8.8,81,0.00,,,0.00,0.00,VWS V14.01,2013-01-17 12:26:00,
2013-01-17 06:27:00,26.3,21.3,30.29,NNW,347,6.6,7.7,81,0.00,,,0.00,0.00,VWS V14.01,2013-01-17 12:27:00,
2013-01-17 06:30:00,26.1,21.1,30.30,NNW,347,5.5,7.7,81,0.00,,,0.00,0.00,VWS V14.01,2013-01-17 12:30:00,
2013-01-17 06:32:00,26.0,21.0,30.30,NNW,332,6.6,6.6,81,0.00,,,0.00,0.00,VWS V14.01,2013-01-17 12:32:00,
2013-01-17 06:36:00,25.8,20.8,30.30,NNW,347,5.5,8.8,81,0.00,,,0.00,0.00,VWS V14.01,2013-01-17 12:36:00,
2013-01-17 06:37:00,25.8,20.8,30.29,North,354,3.3,5.5,81,0.00,,,0.00,0.00,VWS V14.01,2013-01-17 12:37:00,
2013-01-17 06:38:00,25.7,20.7,30.30,NNW,338,6.6,8.8,81,0.00,,,0.00,0.00,VWS V14.01,2013-01-17 12:38:00,
2013-01-17 06:41:00,25.5,20.5,30.30,NNW,348,4.4,6.6,81,0.00,,,0.00,0.00,VWS V14.01,2013-01-17 12:41:00,
2013-01-17 06:42:00,25.5,20.5,30.29,NNW,339,5.5,5.5,81,0.00,,,0.00,0.00,VWS V14.01,2013-01-17 12:42:00,
2013-01-17 06:43:00,25.5,20.5,30.29,NNW,329,4.4,5.5,81,0.00,,,0.00,0.00,VWS V14.01,2013-01-17 12:43:00,
2013-01-17 06:46:00,25.5,20.5,30.29,NW,324,3.3,5.5,81,0.00,,,0.00,0.00,VWS V14.01,2013-01-17 12:46:00,
2013-01-17 06:47:00,25.4,20.4,30.30,NNW,335,6.6,6.6,81,0.00,,,0.00,0.00,VWS V14.01,2013-01-17 12:47:00,
2013-01-17 06:48:00,25.4,20.4,30.29,NNW,341,5.5,5.5,81,0.00,,,0.00,0.00,VWS V14.01,2013-01-17 12:48:00,
2013-01-17 06:51:00,25.1,20.1,30.30,NNW,341,3.3,6.6,81,0.00,,,0.00,0.00,VWS V14.01,2013-01-17 12:51:00,
2013-01-17 06:52:00,25.0,20.0,30.30,NNW,340,3.3,5.5,81,0.00,,,0.00,0.00,VWS V14.01,2013-01-17 12:52:00,
2013-01-17 06:53:00,24.9,19.9,30.30,NNW,330,5.5,6.6,81,0.00,,,0.00,0.00,VWS V14.01,2013-01-17 12:53:00,
2013-01-17 06:57:00,24.8,20.1,30.30,North,359,3.3,6.6,82,0.00,,,0.00,0.00,VWS V14.01,2013-01-17 12:57:00,
2013-01-17 06:58:00,24.7,20.0,30.30,NNW,335,4.4,4.4,82,0.00,,,0.00,0.00,VWS V14.01,2013-01-17 12:58:00,
2013-01-17 06:59:00,24.7,20.0,30.30,NNW,335,4.4,4.4,82,0.00,,,0.00,0.00,VWS V14.01,2013-01-17 12:59:00,
2013-01-17 07:02:00,24.5,19.8,30.30,NNW,332,5.5,5.5,82,0.00,,,0.00,0.00,VWS V14.01,2013-01-17 13:02:00,
2013-01-17 07:04:00,24.5,19.8,30.30,NNW,330,6.6,6.6,82,0.00,,,0.00,0.00,VWS V14.01,2013-01-17 13:04:00,
2013-01-17 07:07:00,24.4,19.4,30.30,North,349,7.7,7.7,81,0.00,,,0.00,0.00,VWS V14.01,2013-01-17 13:07:00,
2013-01-17 07:09:00,24.4,19.4,30.30,NNW,341,4.4,6.6,81,0.00,,,0.00,0.00,VWS V14.01,2013-01-17 13:09:00,
2013-01-17 07:13:00,24.3,19.3,30.30,North,354,4.4,4.4,81,0.00,,,0.00,0.00,VWS V14.01,2013-01-17 13:13:00,
2013-01-17 07:14:00,24.2,19.2,30.30,NNW,342,4.4,4.4,81,0.00,,,0.00,0.00,VWS V14.01,2013-01-17 13:14:00,
2013-01-17 07:15:00,24.2,19.2,30.30,NNW,339,3.3,5.5,81,0.00,,,0.00,0.00,VWS V14.01,2013-01-17 13:15:00,
2013-01-17 07:19:00,24.1,19.4,30.30,NNW,337,5.5,6.6,82,0.00,,,0.00,0.00,VWS V14.01,2013-01-17 13:19:00,
2013-01-17 07:20:00,24.1,19.4,30.30,NNW,330,4.4,6.6,82,0.00,,,0.00,0.00,VWS V14.01,2013-01-17 13:20:00,
2013-01-17 07:24:00,23.9,19.2,30.30,NNW,339,5.5,5.5,82,0.00,,,0.00,7.00,VWS V14.01,2013-01-17 13:24:00,
2013-01-17 07:25:00,23.9,19.2,30.30,North,359,6.6,6.6,82,0.00,,,0.00,7.00,VWS V14.01,2013-01-17 13:25:00,
2013-01-17 07:26:00,23.9,19.2,30.30,NNW,327,4.4,6.6,82,0.00,,,0.00,7.00,VWS V14.01,2013-01-17 13:26:00,
2013-01-17 07:29:00,23.8,19.1,30.31,North,350,7.7,8.8,82,0.00,,,0.00,9.00,VWS V14.01,2013-01-17 13:29:00,
2013-01-17 07:31:00,23.8,19.1,30.31,NNW,339,4.4,7.7,82,0.00,,,0.00,11.00,VWS V14.01,2013-01-17 13:31:00,
2013-01-17 07:35:00,23.9,19.2,30.31,NNW,341,6.6,6.6,82,0.00,,,0.00,12.00,VWS V14.01,2013-01-17 13:35:00,
2013-01-17 07:36:00,23.9,19.2,30.31,NNW,338,4.4,6.6,82,0.00,,,0.00,14.00,VWS V14.01,2013-01-17 13:36:00,
2013-01-17 07:37:00,23.9,19.2,30.31,NNW,338,3.3,5.5,82,0.00,,,0.00,14.00,VWS V14.01,2013-01-17 13:37:00,
2013-01-17 07:40:00,24.1,19.4,30.31,NW,320,3.3,5.5,82,0.00,,,0.00,16.00,VWS V14.01,2013-01-17 13:40:00,
2013-01-17 07:41:00,24.1,19.4,30.31,NNW,335,3.3,4.4,82,0.00,,,0.00,16.00,VWS V14.01,2013-01-17 13:41:00,
2013-01-17 07:43:00,24.2,19.5,30.31,NNW,330,4.4,5.5,82,0.00,,,0.00,16.00,VWS V14.01,2013-01-17 13:43:00,
2013-01-17 07:45:00,24.2,19.2,30.31,NNW,341,3.3,6.6,81,0.00,,,0.00,18.00,VWS V14.01,2013-01-17 13:45:00,
2013-01-17 07:46:00,24.3,19.3,30.31,NW,316,4.4,7.7,81,0.00,,,0.00,18.00,VWS V14.01,2013-01-17 13:46:00,
2013-01-17 07:47:00,24.3,19.3,30.32,NNW,342,2.2,3.3,81,0.00,,,0.00,18.00,VWS V14.01,2013-01-17 13:47:00,
2013-01-17 07:49:00,24.4,19.4,30.32,NNW,332,3.3,5.5,81,0.00,,,0.00,18.00,VWS V14.01,2013-01-17 13:49:00,
2013-01-17 07:51:00,24.5,19.5,30.32,NNW,330,3.3,5.5,81,0.00,,,0.00,19.00,VWS V14.01,2013-01-17 13:51:00,
2013-01-17 07:52:00,24.5,19.5,30.32,NNW,337,3.3,4.4,81,0.00,,,0.00,19.00,VWS V14.01,2013-01-17 13:52:00,
2013-01-17 07:54:00,24.5,19.5,30.32,NNW,337,3.3,5.5,81,0.00,,,0.00,19.00,VWS V14.01,2013-01-17 13:54:00,
2013-01-17 07:56:00,24.6,19.6,30.32,NW,322,4.4,6.6,81,0.00,,,0.00,21.00,VWS V14.01,2013-01-17 13:56:00,
2013-01-17 07:57:00,24.6,19.6,30.32,NW,319,3.3,6.6,81,0.00,,,0.00,21.00,VWS V14.01,2013-01-17 13:57:00,
2013-01-17 07:59:00,24.7,19.7,30.32,NNW,335,3.3,3.3,81,0.00,,,0.00,21.00,VWS V14.01,2013-01-17 13:59:00,
2013-01-17 08:00:00,24.7,19.7,30.32,NNW,346,6.6,6.6,81,0.00,,,0.00,21.00,VWS V14.01,2013-01-17 14:00:00,
2013-01-17 08:01:00,24.8,19.8,30.32,NW,323,7.7,7.7,81,0.00,,,0.00,23.00,VWS V14.01,2013-01-17 14:01:00,
2013-01-17 08:02:00,24.8,19.8,30.32,NNW,329,5.5,7.7,81,0.00,,,0.00,23.00,VWS V14.01,2013-01-17 14:02:00,
2013-01-17 08:04:00,24.9,19.9,30.32,NNW,329,5.5,7.7,81,0.00,,,0.00,23.00,VWS V14.01,2013-01-17 14:04:00,
2013-01-17 08:05:00,25.0,19.7,30.32,NNW,341,4.4,7.7,80,0.00,,,0.00,25.00,VWS V14.01,2013-01-17 14:05:00,
2013-01-17 08:07:00,25.1,19.8,30.33,North,359,4.4,7.7,80,0.00,,,0.00,25.00,VWS V14.01,2013-01-17 14:07:00,
2013-01-17 08:10:00,25.3,20.0,30.33,North,359,7.7,7.7,80,0.00,,,0.00,25.00,VWS V14.01,2013-01-17 14:10:00,
2013-01-17 08:12:00,25.5,20.2,30.33,North,354,4.4,5.5,80,0.00,,,0.00,25.00,VWS V14.01,2013-01-17 14:12:00,
2013-01-17 08:13:00,25.6,20.0,30.33,NNW,345,6.6,6.6,79,0.00,,,0.00,25.00,VWS V14.01,2013-01-17 14:13:00,
2013-01-17 08:15:00,25.7,20.1,30.33,NNW,332,7.7,7.7,79,0.00,,,0.00,26.00,VWS V14.01,2013-01-17 14:15:00,
2013-01-17 08:16:00,25.7,20.1,30.33,NW,324,7.7,9.9,79,0.00,,,0.00,26.00,VWS V14.01,2013-01-17 14:16:00,
2013-01-17 08:17:00,25.7,20.1,30.34,North,354,6.6,6.6,79,0.00,,,0.00,26.00,VWS V14.01,2013-01-17 14:17:00,
2013-01-17 08:18:00,25.8,20.2,30.33,NNW,330,8.8,12.1,79,0.00,,,0.00,26.00,VWS V14.01,2013-01-17 14:18:00,
2013-01-17 08:21:00,25.8,20.2,30.33,North,350,8.8,9.9,79,0.00,,,0.00,28.00,VWS V14.01,2013-01-17 14:21:00,
2013-01-17 08:23:00,25.9,20.3,30.33,NNW,337,5.5,7.7,79,0.00,,,0.00,26.00,VWS V14.01,2013-01-17 14:23:00,
2013-01-17 08:24:00,26.0,20.1,30.33,NW,323,6.6,9.9,78,0.00,,,0.00,26.00,VWS V14.01,2013-01-17 14:24:00,
2013-01-17 08:26:00,26.2,20.3,30.34,North,354,9.9,11.0,78,0.00,,,0.00,26.00,VWS V14.01,2013-01-17 14:26:00,
2013-01-17 08:27:00,26.2,20.3,30.34,NW,325,7.7,11.0,78,0.00,,,0.00,26.00,VWS V14.01,2013-01-17 14:27:00,
2013-01-17 08:28:00,26.3,20.4,30.34,North,350,9.9,12.1,78,0.00,,,0.00,28.00,VWS V14.01,2013-01-17 14:28:00,
2013-01-17 08:30:00,26.3,20.4,30.34,NNW,344,4.4,8.8,78,0.00,,,0.00,28.00,VWS V14.01,2013-01-17 14:30:00,
2013-01-17 08:32:00,26.4,20.5,30.34,WNW,297,11.0,11.0,78,0.00,,,0.00,28.00,VWS V14.01,2013-01-17 14:32:00,
2013-01-17 08:34:00,26.5,20.6,30.34,North,4,8.8,8.8,78,0.00,,,0.00,28.00,VWS V14.01,2013-01-17 14:34:00,
2013-01-17 08:35:00,26.5,20.6,30.34,NNW,337,6.6,9.9,78,0.00,,,0.00,28.00,VWS V14.01,2013-01-17 14:35:00,
2013-01-17 08:37:00,26.6,20.7,30.34,NW,312,7.7,9.9,78,0.00,,,0.00,28.00,VWS V14.01,2013-01-17 14:37:00,
2013-01-17 08:38:00,26.7,20.8,30.34,NNW,338,7.7,12.1,78,0.00,,,0.00,28.00,VWS V14.01,2013-01-17 14:38:00,
2013-01-17 08:39:00,26.7,20.8,30.35,NNW,343,5.5,9.9,78,0.00,,,0.00,28.00,VWS V14.01,2013-01-17 14:39:00,
2013-01-17 08:40:00,26.7,20.8,30.35,NNW,343,6.6,8.8,78,0.00,,,0.00,28.00,VWS V14.01,2013-01-17 14:40:00,
2013-01-17 08:42:00,26.8,20.6,30.35,NW,322,3.3,7.7,77,0.00,,,0.00,28.00,VWS V14.01,2013-01-17 14:42:00,
2013-01-17 08:43:00,26.9,21.0,30.35,NW,322,6.6,8.8,78,0.00,,,0.00,30.00,VWS V14.01,2013-01-17 14:43:00,
2013-01-17 08:44:00,26.9,21.0,30.35,NNW,339,4.4,6.6,78,0.00,,,0.00,30.00,VWS V14.01,2013-01-17 14:44:00,
2013-01-17 08:46:00,27.0,20.8,30.35,NNW,345,11.0,11.0,77,0.00,,,0.00,32.00,VWS V14.01,2013-01-17 14:46:00,
2013-01-17 08:47:00,27.0,20.8,30.35,North,354,7.7,11.0,77,0.00,,,0.00,32.00,VWS V14.01,2013-01-17 14:47:00,
2013-01-17 08:49:00,27.1,20.9,30.35,NNE,16,5.5,5.5,77,0.00,,,0.00,32.00,VWS V14.01,2013-01-17 14:49:00,
2013-01-17 08:52:00,27.2,20.6,30.35,NNE,15,6.6,11.0,76,0.00,,,0.00,32.00,VWS V14.01,2013-01-17 14:52:00,
2013-01-17 08:54:00,27.3,20.4,30.35,NNW,339,8.8,11.0,75,0.00,,,0.00,30.00,VWS V14.01,2013-01-17 14:54:00,
2013-01-17 08:58:00,27.4,20.5,30.35,NNW,331,8.8,9.9,75,0.00,,,0.00,32.00,VWS V14.01,2013-01-17 14:58:00,
2013-01-17 08:59:00,27.5,20.6,30.35,NNW,343,8.8,8.8,75,0.00,,,0.00,32.00,VWS V14.01,2013-01-17 14:59:00,
2013-01-17 09:00:00,27.5,20.6,30.35,NW,308,11.0,11.0,75,0.00,,,0.00,32.00,VWS V14.01,2013-01-17 15:00:00,
2013-01-17 09:03:00,27.6,20.7,30.36,NNW,332,7.7,13.2,75,0.00,,,0.00,32.00,VWS V14.01,2013-01-17 15:03:00,
2013-01-17 09:05:00,27.7,20.5,30.35,North,354,8.8,12.1,74,0.00,,,0.00,32.00,VWS V14.01,2013-01-17 15:05:00,
2013-01-17 09:06:00,27.8,20.3,30.35,North,349,9.9,9.9,73,0.00,,,0.00,32.00,VWS V14.01,2013-01-17 15:06:00,
2013-01-17 09:09:00,27.8,20.6,30.35,North,354,5.5,9.9,74,0.00,,,0.00,32.00,VWS V14.01,2013-01-17 15:09:00,
2013-01-17 09:10:00,27.8,20.6,30.35,NNW,342,7.7,13.2,74,0.00,,,0.00,32.00,VWS V14.01,2013-01-17 15:10:00,
2013-01-17 09:11:00,27.8,20.6,30.36,NNW,347,4.4,8.8,74,0.00,,,0.00,33.00,VWS V14.01,2013-01-17 15:11:00,
2013-01-17 09:14:00,27.8,20.6,30.36,North,354,12.1,12.1,74,0.00,,,0.00,33.00,VWS V14.01,2013-01-17 15:14:00,
2013-01-17 09:15:00,27.9,20.7,30.36,NNW,335,8.8,8.8,74,0.00,,,0.00,33.00,VWS V14.01,2013-01-17 15:15:00,
2013-01-17 09:16:00,27.9,20.4,30.36,North,4,7.7,12.1,73,0.00,,,0.00,33.00,VWS V14.01,2013-01-17 15:16:00,
2013-01-17 09:19:00,27.8,20.3,30.36,NW,326,5.5,7.7,73,0.00,,,0.00,33.00,VWS V14.01,2013-01-17 15:19:00,
2013-01-17 09:20:00,27.8,20.3,30.36,NNW,343,7.7,7.7,73,0.00,,,0.00,33.00,VWS V14.01,2013-01-17 15:20:00,
2013-01-17 09:21:00,27.9,20.4,30.36,NNW,332,7.7,8.8,73,0.00,,,0.00,33.00,VWS V14.01,2013-01-17 15:21:00,
2013-01-17 09:22:00,27.9,20.4,30.36,NNW,335,9.9,15.4,73,0.00,,,0.00,33.00,VWS V14.01,2013-01-17 15:22:00,
2013-01-17 09:25:00,28.0,20.5,30.36,NNW,342,9.9,18.7,73,0.00,,,0.00,33.00,VWS V14.01,2013-01-17 15:25:00,
2013-01-17 09:26:00,28.0,20.2,30.36,North,359,4.4,12.1,72,0.00,,,0.00,33.00,VWS V14.01,2013-01-17 15:26:00,
2013-01-17 09:27:00,27.9,19.7,30.36,NNW,330,9.9,12.1,71,0.00,,,0.00,33.00,VWS V14.01,2013-01-17 15:27:00,
2013-01-17 09:31:00,27.8,19.6,30.36,North,359,5.5,13.2,71,0.00,,,0.00,84.00,VWS V14.01,2013-01-17 15:31:00,
2013-01-17 09:32:00,27.8,19.6,30.36,North,354,14.3,14.3,71,0.00,,,0.00,51.00,VWS V14.01,2013-01-17 15:32:00,
2013-01-17 09:36:00,27.8,19.6,30.36,NNW,345,11.0,14.3,71,0.00,,,0.00,33.00,VWS V14.01,2013-01-17 15:36:00,
2013-01-17 09:37:00,27.8,19.6,30.36,North,354,11.0,11.0,71,0.00,,,0.00,33.00,VWS V14.01,2013-01-17 15:37:00,
2013-01-17 09:41:00,27.9,19.4,30.36,North,359,11.0,11.0,70,0.00,,,0.00,33.00,VWS V14.01,2013-01-17 15:41:00,
2013-01-17 09:42:00,27.9,19.4,30.36,NNE,19,6.6,14.3,70,0.00,,,0.00,33.00,VWS V14.01,2013-01-17 15:42:00,
2013-01-17 09:47:00,28.0,19.2,30.36,NNW,346,15.4,15.4,69,0.00,,,0.00,58.00,VWS V14.01,2013-01-17 15:47:00,
2013-01-17 09:48:00,28.0,19.2,30.36,NNW,335,14.3,16.5,69,0.00,,,0.00,33.00,VWS V14.01,2013-01-17 15:48:00,
2013-01-17 09:52:00,28.1,18.9,30.36,North,349,6.6,17.6,68,0.00,,,0.00,33.00,VWS V14.01,2013-01-17 15:52:00,
2013-01-17 09:53:00,28.1,18.9,30.36,NNW,332,9.9,12.1,68,0.00,,,0.00,33.00,VWS V14.01,2013-01-17 15:53:00,
2013-01-17 09:57:00,28.2,18.7,30.36,NNW,331,6.6,6.6,67,0.00,,,0.00,32.00,VWS V14.01,2013-01-17 15:57:00,
2013-01-17 09:58:00,28.3,18.8,30.36,NNW,345,8.8,8.8,67,0.00,,,0.00,32.00,VWS V14.01,2013-01-17 15:58:00,
2013-01-17 09:59:00,28.3,18.8,30.36,North,354,8.8,9.9,67,0.00,,,0.00,32.00,VWS V14.01,2013-01-17 15:59:00,
2013-01-17 10:03:00,28.4,18.5,30.36,NNW,343,6.6,12.1,66,0.00,,,0.00,32.00,VWS V14.01,2013-01-17 16:03:00,
2013-01-17 10:04:00,28.4,18.5,30.36,NNW,347,8.8,8.8,66,0.00,,,0.00,32.00,VWS V14.01,2013-01-17 16:04:00,
2013-01-17 10:09:00,28.5,18.6,30.36,NNW,330,8.8,9.9,66,0.00,,,0.00,32.00,VWS V14.01,2013-01-17 16:09:00,
2013-01-17 10:14:00,28.7,18.4,30.36,NNW,337,7.7,9.9,65,0.00,,,0.00,37.00,VWS V14.01,2013-01-17 16:14:00,
2013-01-17 10:15:00,28.7,18.4,30.36,North,9,4.4,7.7,65,0.00,,,0.00,35.00,VWS V14.01,2013-01-17 16:15:00,
2013-01-17 10:19:00,28.9,18.6,30.36,NW,326,7.7,12.1,65,0.00,,,0.00,33.00,VWS V14.01,2013-01-17 16:19:00,
2013-01-17 10:20:00,29.0,18.7,30.36,NNW,342,14.3,14.3,65,0.00,,,0.00,49.00,VWS V14.01,2013-01-17 16:20:00,
2013-01-17 10:24:00,29.2,17.8,30.36,North,359,9.9,14.3,62,0.00,,,0.00,102.00,VWS V14.01,2013-01-17 16:24:00,
2013-01-17 10:25:00,29.2,17.8,30.36,NW,326,7.7,9.9,62,0.00,,,0.00,109.00,VWS V14.01,2013-01-17 16:25:00,
2013-01-17 10:26:00,29.1,17.3,30.36,NNW,342,9.9,9.9,61,0.00,,,0.00,56.00,VWS V14.01,2013-01-17 16:26:00,
2013-01-17 10:30:00,29.2,17.8,30.36,NNW,331,8.8,12.1,62,0.00,,,0.00,35.00,VWS V14.01,2013-01-17 16:30:00,
2013-01-17 10:31:00,29.3,17.9,30.36,NNW,345,9.9,9.9,62,0.00,,,0.00,37.00,VWS V14.01,2013-01-17 16:31:00,
2013-01-17 10:35:00,29.5,17.3,30.36,NW,319,8.8,12.1,60,0.00,,,0.00,35.00,VWS V14.01,2013-01-17 16:35:00,
2013-01-17 10:36:00,29.5,17.3,30.36,NNW,339,7.7,8.8,60,0.00,,,0.00,35.00,VWS V14.01,2013-01-17 16:36:00,
2013-01-17 10:37:00,29.4,17.6,30.36,North,349,8.8,11.0,61,0.00,,,0.00,40.00,VWS V14.01,2013-01-17 16:37:00,
2013-01-17 10:40:00,29.6,17.4,30.36,NW,320,11.0,13.2,60,0.00,,,0.00,42.00,VWS V14.01,2013-01-17 16:40:00,
2013-01-17 10:41:00,29.7,17.5,30.36,NW,324,7.7,7.7,60,0.00,,,0.00,40.00,VWS V14.01,2013-01-17 16:41:00,
2013-01-17 10:42:00,30.0,18.6,30.36,NNW,328,8.8,9.9,62,0.00,,,0.00,37.00,VWS V14.01,2013-01-17 16:42:00,
2013-01-17 10:45:00,30.3,17.7,30.36,NNW,339,5.5,5.5,59,0.00,,,0.00,33.00,VWS V14.01,2013-01-17 16:45:00,
2013-01-17 10:47:00,30.2,18.0,30.36,North,354,13.2,13.2,60,0.00,,,0.00,33.00,VWS V14.01,2013-01-17 16:47:00,
2013-01-17 10:50:00,30.1,17.5,30.36,NNW,340,8.8,11.0,59,0.00,,,0.00,33.00,VWS V14.01,2013-01-17 16:50:00,
2013-01-17 10:52:00,30.1,17.5,30.36,NNW,341,11.0,12.1,59,0.00,,,0.00,35.00,VWS V14.01,2013-01-17 16:52:00,
2013-01-17 10:53:00,30.2,17.6,30.36,North,349,13.2,15.4,59,0.00,,,0.00,35.00,VWS V14.01,2013-01-17 16:53:00,
2013-01-17 10:57:00,30.4,17.8,30.36,NNW,341,6.6,9.9,59,0.00,,,0.00,46.00,VWS V14.01,2013-01-17 16:57:00,
2013-01-17 10:58:00,30.4,17.4,30.36,NW,305,12.1,14.3,58,0.00,,,0.00,33.00,VWS V14.01,2013-01-17 16:58:00,
2013-01-17 10:59:00,30.4,17.4,30.36,NW,308,9.9,13.2,58,0.00,,,0.00,35.00,VWS V14.01,2013-01-17 16:59:00,
2013-01-17 11:02:00,30.6,17.6,30.36,WNW,301,4.4,9.9,58,0.00,,,0.00,72.00,VWS V14.01,2013-01-17 17:02:00,
2013-01-17 11:03:00,30.7,17.7,30.36,NW,309,7.7,11.0,58,0.00,,,0.00,107.00,VWS V14.01,2013-01-17 17:03:00,
2013-01-17 11:04:00,30.8,18.2,30.36,NNW,344,9.9,13.2,59,0.00,,,0.00,107.00,VWS V14.01,2013-01-17 17:04:00,
2013-01-17 11:07:00,31.0,18.4,30.35,NNW,343,8.8,14.3,59,0.00,,,0.00,469.00,VWS V14.01,2013-01-17 17:07:00,
2013-01-17 11:08:00,31.2,18.2,30.35,WNW,298,7.7,11.0,58,0.00,,,0.00,468.00,VWS V14.01,2013-01-17 17:08:00,
2013-01-17 11:09:00,31.4,17.9,30.35,NW,322,6.6,7.7,57,0.00,,,0.00,410.00,VWS V14.01,2013-01-17 17:09:00,
2013-01-17 11:12:00,31.5,18.0,30.36,NW,314,7.7,7.7,57,0.00,,,0.00,394.00,VWS V14.01,2013-01-17 17:12:00,
2013-01-17 11:13:00,31.5,18.0,30.36,NW,326,11.0,13.2,57,0.00,,,0.00,392.00,VWS V14.01,2013-01-17 17:13:00,
2013-01-17 11:15:00,31.5,18.0,30.36,NW,310,9.9,13.2,57,0.00,,,0.00,454.00,VWS V14.01,2013-01-17 17:15:00,
2013-01-17 11:17:00,31.5,17.2,30.36,NW,317,4.4,5.5,55,0.00,,,0.00,439.00,VWS V14.01,2013-01-17 17:17:00,
2013-01-17 11:18:00,31.6,17.7,30.36,WNW,298,12.1,12.1,56,0.00,,,0.00,452.00,VWS V14.01,2013-01-17 17:18:00,
2013-01-17 11:19:00,31.6,17.7,30.36,WNW,303,13.2,15.4,56,0.00,,,0.00,452.00,VWS V14.01,2013-01-17 17:19:00,
2013-01-17 11:20:00,31.7,17.0,30.36,NW,324,5.5,12.1,54,0.00,,,0.00,480.00,VWS V14.01,2013-01-17 17:20:00,
2013-01-17 11:23:00,31.9,17.6,30.36,NNW,337,6.6,12.1,55,0.00,,,0.00,480.00,VWS V14.01,2013-01-17 17:23:00,
2013-01-17 11:24:00,32.0,17.2,30.36,WNW,282,5.5,11.0,54,0.00,,,0.00,452.00,VWS V14.01,2013-01-17 17:24:00,
2013-01-17 11:27:00,31.9,16.3,30.36,NW,311,16.5,16.5,52,0.00,,,0.00,452.00,VWS V14.01,2013-01-17 17:27:00,
2013-01-17 11:28:00,31.9,16.3,30.36,WNW,287,15.4,15.4,52,0.00,,,0.00,487.00,VWS V14.01,2013-01-17 17:28:00,
2013-01-17 11:29:00,31.8,16.2,30.36,WNW,287,8.8,12.1,52,0.00,,,0.00,489.00,VWS V14.01,2013-01-17 17:29:00,
2013-01-17 11:30:00,31.9,16.7,30.36,WNW,299,12.1,16.5,53,0.00,,,0.00,489.00,VWS V14.01,2013-01-17 17:30:00,
2013-01-17 11:33:00,31.8,16.2,30.36,NW,307,12.1,14.3,52,0.00,,,0.00,490.00,VWS V14.01,2013-01-17 17:33:00,
2013-01-17 11:34:00,31.6,16.0,30.36,West,280,5.5,7.7,52,0.00,,,0.00,490.00,VWS V14.01,2013-01-17 17:34:00,
2013-01-17 11:35:00,31.7,16.1,30.36,WNW,294,9.9,12.1,52,0.00,,,0.00,492.00,VWS V14.01,2013-01-17 17:35:00,
2013-01-17 11:38:00,32.2,17.9,30.36,NW,318,6.6,13.2,55,0.00,,,0.00,473.00,VWS V14.01,2013-01-17 17:38:00,
2013-01-17 11:40:00,32.4,17.6,30.36,NNW,330,9.9,15.4,54,0.00,,,0.00,436.00,VWS V14.01,2013-01-17 17:40:00,
2013-01-17 11:43:00,32.4,18.0,30.35,NW,326,5.5,13.2,55,0.00,,,0.00,279.00,VWS V14.01,2013-01-17 17:43:00,
2013-01-17 11:44:00,32.5,18.1,30.35,NNW,342,8.8,13.2,55,0.00,,,0.00,279.00,VWS V14.01,2013-01-17 17:44:00,
2013-01-17 11:45:00,32.5,18.1,30.35,NNW,330,9.9,12.1,55,0.00,,,0.00,285.00,VWS V14.01,2013-01-17 17:45:00,
2013-01-17 11:49:00,31.8,17.5,30.35,NW,324,11.0,12.1,55,0.00,,,0.00,374.00,VWS V14.01,2013-01-17 17:49:00,
2013-01-17 11:50:00,31.9,17.6,30.35,NNW,330,12.1,12.1,55,0.00,,,0.00,362.00,VWS V14.01,2013-01-17 17:50:00,
2013-01-17 11:51:00,32.1,18.2,30.35,NW,310,8.8,13.2,56,0.00,,,0.00,362.00,VWS V14.01,2013-01-17 17:51:00,
2013-01-17 11:54:00,32.5,18.1,30.35,NW,311,8.8,8.8,55,0.00,,,0.00,306.00,VWS V14.01,2013-01-17 17:54:00,
2013-01-17 11:55:00,32.7,19.2,30.35,NW,320,8.8,8.8,57,0.00,,,0.00,355.00,VWS V14.01,2013-01-17 17:55:00,
2013-01-17 11:56:00,32.7,18.3,30.35,NW,326,8.8,8.8,55,0.00,,,0.00,408.00,VWS V14.01,2013-01-17 17:56:00,
2013-01-17 11:59:00,32.5,17.3,30.35,NW,310,8.8,12.1,53,0.00,,,0.00,427.00,VWS V14.01,2013-01-17 17:59:00,
2013-01-17 12:00:00,32.5,17.3,30.35,NW,310,14.3,14.3,53,0.00,,,0.00,427.00,VWS V14.01,2013-01-17 18:00:00,
2013-01-17 12:02:00,32.3,17.5,30.35,NW,313,11.0,13.2,54,0.00,,,0.00,425.00,VWS V14.01,2013-01-17 18:02:00,
2013-01-17 12:05:00,32.3,17.5,30.35,NW,321,7.7,12.1,54,0.00,,,0.00,415.00,VWS V14.01,2013-01-17 18:05:00,
2013-01-17 12:07:00,32.1,17.3,30.35,WNW,299,7.7,9.9,54,0.00,,,0.00,304.00,VWS V14.01,2013-01-17 18:07:00,
2013-01-17 12:10:00,31.9,17.2,30.35,WNW,287,13.2,14.3,54,0.00,,,0.00,151.00,VWS V14.01,2013-01-17 18:10:00,
2013-01-17 12:11:00,31.9,17.6,30.35,WNW,300,12.1,16.5,55,0.00,,,0.00,151.00,VWS V14.01,2013-01-17 18:11:00,
2013-01-17 12:12:00,31.9,17.2,30.35,WNW,294,12.1,16.5,54,0.00,,,0.00,151.00,VWS V14.01,2013-01-17 18:12:00,
2013-01-17 12:16:00,32.1,17.8,30.35,WNW,301,11.0,15.4,55,0.00,,,0.00,207.00,VWS V14.01,2013-01-17 18:16:00,
2013-01-17 12:17:00,32.1,16.9,30.35,WNW,300,11.0,14.3,53,0.00,,,0.00,457.00,VWS V14.01,2013-01-17 18:17:00,
2013-01-17 12:18:00,32.0,17.2,30.35,WNW,297,11.0,14.3,54,0.00,,,0.00,478.00,VWS V14.01,2013-01-17 18:18:00,
2013-01-17 12:21:00,32.1,17.3,30.35,NNW,332,6.6,12.1,54,0.00,,,0.00,404.00,VWS V14.01,2013-01-17 18:21:00,
2013-01-17 12:22:00,32.0,17.2,30.35,NW,325,14.3,14.3,54,0.00,,,0.00,387.00,VWS V14.01,2013-01-17 18:22:00,
2013-01-17 12:24:00,32.1,16.9,30.35,NW,314,16.5,16.5,53,0.00,,,0.00,276.00,VWS V14.01,2013-01-17 18:24:00,
2013-01-17 12:26:00,32.1,16.9,30.35,WNW,296,7.7,13.2,53,0.00,,,0.00,313.00,VWS V14.01,2013-01-17 18:26:00,
2013-01-17 12:27:00,32.3,17.5,30.35,NW,317,17.6,17.6,54,0.00,,,0.00,299.00,VWS V14.01,2013-01-17 18:27:00,
2013-01-17 12:29:00,32.4,17.6,30.35,NNW,328,17.6,20.9,54,0.00,,,0.00,325.00,VWS V14.01,2013-01-17 18:29:00,
2013-01-17 12:31:00,32.4,16.8,30.35,NW,312,7.7,16.5,52,0.00,,,0.00,315.00,VWS V14.01,2013-01-17 18:31:00,
2013-01-17 12:32:00,32.3,16.7,30.35,NNW,343,8.8,16.5,52,0.00,,,0.00,276.00,VWS V14.01,2013-01-17 18:32:00,
2013-01-17 12:33:00,32.3,17.1,30.35,NW,305,14.3,16.5,53,0.00,,,0.00,267.00,VWS V14.01,2013-01-17 18:33:00,
2013-01-17 12:34:00,32.3,17.5,30.35,NW,308,7.7,7.7,54,0.00,,,0.00,338.00,VWS V14.01,2013-01-17 18:34:00,
2013-01-17 12:36:00,32.5,17.3,30.35,NNW,329,7.7,12.1,53,0.00,,,0.00,396.00,VWS V14.01,2013-01-17 18:36:00,
2013-01-17 12:37:00,32.5,17.7,30.35,NNW,328,8.8,8.8,54,0.00,,,0.00,424.00,VWS V14.01,2013-01-17 18:37:00,
2013-01-17 12:38:00,32.5,17.3,30.35,WNW,295,6.6,13.2,53,0.00,,,0.00,401.00,VWS V14.01,2013-01-17 18:38:00,
2013-01-17 12:40:00,32.7,17.9,30.35,NW,318,14.3,14.3,54,0.00,,,0.00,292.00,VWS V14.01,2013-01-17 18:40:00,
2013-01-17 12:42:00,32.6,16.9,30.35,NW,316,7.7,15.4,52,0.00,,,0.00,355.00,VWS V14.01,2013-01-17 18:42:00,
2013-01-17 12:43:00,32.4,16.8,30.35,NNW,338,14.3,15.4,52,0.00,,,0.00,288.00,VWS V14.01,2013-01-17 18:43:00,
2013-01-17 12:45:00,32.3,16.2,30.35,NNW,328,14.3,14.3,51,0.00,,,0.00,374.00,VWS V14.01,2013-01-17 18:45:00,
2013-01-17 12:47:00,32.1,16.5,30.35,WNW,289,12.1,17.6,52,0.00,,,0.00,374.00,VWS V14.01,2013-01-17 18:47:00,
2013-01-17 12:48:00,32.1,16.5,30.35,WNW,295,14.3,17.6,52,0.00,,,0.00,374.00,VWS V14.01,2013-01-17 18:48:00,
2013-01-17 12:51:00,32.2,16.6,30.35,WNW,301,12.1,19.8,52,0.00,,,0.00,195.00,VWS V14.01,2013-01-17 18:51:00,
2013-01-17 12:52:00,32.3,16.7,30.35,NW,320,12.1,12.1,52,0.00,,,0.00,193.00,VWS V14.01,2013-01-17 18:52:00,
2013-01-17 12:53:00,32.3,16.7,30.35,NW,320,14.3,14.3,52,0.00,,,0.00,193.00,VWS V14.01,2013-01-17 18:53:00,
2013-01-17 12:57:00,32.6,16.5,30.35,NW,325,11.0,16.5,51,0.00,,,0.00,318.00,VWS V14.01,2013-01-17 18:57:00,
2013-01-17 12:58:00,32.6,17.4,30.35,NW,312,16.5,16.5,53,0.00,,,0.00,276.00,VWS V14.01,2013-01-17 18:58:00,
2013-01-17 12:59:00,32.7,17.5,30.35,NW,305,11.0,16.5,53,0.00,,,0.00,232.00,VWS V14.01,2013-01-17 18:59:00,
2013-01-17 13:02:00,32.7,17.0,30.35,North,4,7.7,13.2,52,0.00,,,0.00,248.00,VWS V14.01,2013-01-17 19:02:00,
2013-01-17 13:03:00,32.7,17.5,30.35,NW,326,8.8,12.1,53,0.00,,,0.00,278.00,VWS V14.01,2013-01-17 19:03:00,
2013-01-17 13:04:00,32.7,17.0,30.35,NW,310,9.9,13.2,52,0.00,,,0.00,278.00,VWS V14.01,2013-01-17 19:04:00,
2013-01-17 13:05:00,32.6,16.9,30.35,NNW,338,5.5,9.9,52,0.00,,,0.00,304.00,VWS V14.01,2013-01-17 19:05:00,
2013-01-17 13:08:00,32.7,17.5,30.35,NW,325,6.6,11.0,53,0.00,,,0.00,114.00,VWS V14.01,2013-01-17 19:08:00,
2013-01-17 13:09:00,32.6,17.8,30.35,WNW,283,8.8,8.8,54,0.00,,,0.00,272.00,VWS V14.01,2013-01-17 19:09:00,
2013-01-17 13:10:00,32.7,17.9,30.35,NW,318,11.0,19.8,54,0.00,,,0.00,272.00,VWS V14.01,2013-01-17 19:10:00,
2013-01-17 13:13:00,32.6,17.4,30.35,NNW,336,15.4,15.4,53,0.00,,,0.00,302.00,VWS V14.01,2013-01-17 19:13:00,
2013-01-17 13:14:00,32.6,17.4,30.35,NW,308,12.1,16.5,53,0.00,,,0.00,70.00,VWS V14.01,2013-01-17 19:14:00,
2013-01-17 13:15:00,32.7,18.3,30.35,NNW,328,11.0,11.0,55,0.00,,,0.00,95.00,VWS V14.01,2013-01-17 19:15:00,
2013-01-17 13:16:00,32.8,17.6,30.35,NW,321,11.0,14.3,53,0.00,,,0.00,183.00,VWS V14.01,2013-01-17 19:16:00,
2013-01-17 13:18:00,32.7,17.5,30.35,North,8,8.8,12.1,53,0.00,,,0.00,178.00,VWS V14.01,2013-01-17 19:18:00,
2013-01-17 13:20:00,32.6,17.8,30.35,NW,312,13.2,14.3,54,0.00,,,0.00,153.00,VWS V14.01,2013-01-17 19:20:00,
2013-01-17 13:22:00,32.4,17.6,30.35,WNW,293,8.8,12.1,54,0.00,,,0.00,132.00,VWS V14.01,2013-01-17 19:22:00,
2013-01-17 13:23:00,32.2,17.0,30.35,WNW,287,14.3,15.4,53,0.00,,,0.00,132.00,VWS V14.01,2013-01-17 19:23:00,
2013-01-17 13:25:00,32.0,17.2,30.35,NW,311,7.7,12.1,54,0.00,,,0.00,54.00,VWS V14.01,2013-01-17 19:25:00,
2013-01-17 13:28:00,32.1,16.9,30.35,NW,317,13.2,13.2,53,0.00,,,0.00,151.00,VWS V14.01,2013-01-17 19:28:00,
2013-01-17 13:29:00,32.0,16.8,30.35,NW,309,11.0,14.3,53,0.00,,,0.00,151.00,VWS V14.01,2013-01-17 19:29:00,
2013-01-17 13:30:00,32.1,16.9,30.35,WNW,292,13.2,13.2,53,0.00,,,0.00,360.00,VWS V14.01,2013-01-17 19:30:00,
2013-01-17 13:33:00,32.3,17.5,30.35,WNW,293,12.1,16.5,54,0.00,,,0.00,336.00,VWS V14.01,2013-01-17 19:33:00,
2013-01-17 13:35:00,32.2,17.4,30.35,NW,313,5.5,15.4,54,0.00,,,0.00,308.00,VWS V14.01,2013-01-17 19:35:00,
2013-01-17 13:36:00,32.1,17.3,30.35,NW,322,12.1,14.3,54,0.00,,,0.00,318.00,VWS V14.01,2013-01-17 19:36:00,
2013-01-17 13:39:00,32.1,17.8,30.35,NW,323,8.8,11.0,55,0.00,,,0.00,330.00,VWS V14.01,2013-01-17 19:39:00,
2013-01-17 13:40:00,32.1,17.8,30.35,West,276,8.8,11.0,55,0.00,,,0.00,257.00,VWS V14.01,2013-01-17 19:40:00,
2013-01-17 13:41:00,32.1,18.2,30.35,WNW,297,9.9,15.4,56,0.00,,,0.00,257.00,VWS V14.01,2013-01-17 19:41:00,
2013-01-17 13:44:00,32.3,18.0,30.35,NW,310,9.9,16.5,55,0.00,,,0.00,76.00,VWS V14.01,2013-01-17 19:44:00,
2013-01-17 13:45:00,32.1,17.3,30.35,NW,310,11.0,11.0,54,0.00,,,0.00,70.00,VWS V14.01,2013-01-17 19:45:00,
2013-01-17 13:46:00,32.0,17.2,30.35,WNW,293,14.3,15.4,54,0.00,,,0.00,139.00,VWS V14.01,2013-01-17 19:46:00,
2013-01-17 13:49:00,31.8,17.1,30.35,NW,309,8.8,16.5,54,0.00,,,0.00,148.00,VWS V14.01,2013-01-17 19:49:00,
2013-01-17 13:50:00,31.9,17.2,30.35,NW,310,12.1,16.5,54,0.00,,,0.00,172.00,VWS V14.01,2013-01-17 19:50:00,
2013-01-17 13:53:00,31.6,16.9,30.35,NNW,341,8.8,17.6,54,0.00,,,0.00,267.00,VWS V14.01,2013-01-17 19:53:00,
2013-01-17 13:54:00,31.6,16.9,30.35,NW,318,13.2,18.7,54,0.00,,,0.00,181.00,VWS V14.01,2013-01-17 19:54:00,
2013-01-17 13:56:00,31.6,17.3,30.35,WNW,297,8.8,15.4,55,0.00,,,0.00,116.00,VWS V14.01,2013-01-17 19:56:00,
2013-01-17 13:57:00,31.6,17.3,30.35,NW,320,11.0,16.5,55,0.00,,,0.00,134.00,VWS V14.01,2013-01-17 19:57:00,
2013-01-17 13:58:00,31.7,17.8,30.35,NNW,332,11.0,15.4,56,0.00,,,0.00,158.00,VWS V14.01,2013-01-17 19:58:00,
2013-01-17 13:59:00,31.7,17.4,30.36,NW,309,13.2,13.2,55,0.00,,,0.00,183.00,VWS V14.01,2013-01-17 19:59:00,
2013-01-17 14:01:00,31.8,17.9,30.35,WNW,301,15.4,19.8,56,0.00,,,0.00,295.00,VWS V14.01,2013-01-17 20:01:00,
2013-01-17 14:02:00,31.7,17.4,30.35,WNW,283,7.7,8.8,55,0.00,,,0.00,313.00,VWS V14.01,2013-01-17 20:02:00,
2013-01-17 14:03:00,31.7,17.4,30.35,NW,305,7.7,11.0,55,0.00,,,0.00,313.00,VWS V14.01,2013-01-17 20:03:00,
2013-01-17 14:05:00,31.8,18.3,30.35,WNW,299,12.1,12.1,57,0.00,,,0.00,359.00,VWS V14.01,2013-01-17 20:05:00,
2013-01-17 14:06:00,31.9,18.0,30.35,West,276,9.9,13.2,56,0.00,,,0.00,323.00,VWS V14.01,2013-01-17 20:06:00,
2013-01-17 14:07:00,31.9,18.0,30.35,NW,320,6.6,6.6,56,0.00,,,0.00,339.00,VWS V14.01,2013-01-17 20:07:00,
2013-01-17 14:08:00,32.1,18.2,30.35,NW,305,12.1,12.1,56,0.00,,,0.00,329.00,VWS V14.01,2013-01-17 20:08:00,
2013-01-17 14:10:00,32.4,18.5,30.35,NW,306,11.0,12.1,56,0.00,,,0.00,295.00,VWS V14.01,2013-01-17 20:10:00,
2013-01-17 14:11:00,32.3,17.5,30.35,WNW,285,12.1,13.2,54,0.00,,,0.00,274.00,VWS V14.01,2013-01-17 20:11:00,
2013-01-17 14:12:00,32.1,16.9,30.35,NW,310,12.1,12.1,53,0.00,,,0.00,287.00,VWS V14.01,2013-01-17 20:12:00,
2013-01-17 14:14:00,32.0,17.2,30.35,WNW,298,18.7,18.7,54,0.00,,,0.00,334.00,VWS V14.01,2013-01-17 20:14:00,
2013-01-17 14:15:00,31.9,17.2,30.35,WNW,297,7.7,17.6,54,0.00,,,0.00,373.00,VWS V14.01,2013-01-17 20:15:00,
2013-01-17 14:17:00,31.9,17.2,30.35,WNW,294,13.2,14.3,54,0.00,,,0.00,353.00,VWS V14.01,2013-01-17 20:17:00,
2013-01-17 14:18:00,31.9,16.7,30.35,NNW,328,13.2,17.6,53,0.00,,,0.00,329.00,VWS V14.01,2013-01-17 20:18:00,
2013-01-17 14:20:00,31.7,17.0,30.35,NW,321,11.0,12.1,54,0.00,,,0.00,352.00,VWS V14.01,2013-01-17 20:20:00,
2013-01-17 14:21:00,31.7,17.0,30.35,NW,314,14.3,16.5,54,0.00,,,0.00,304.00,VWS V14.01,2013-01-17 20:21:00,
2013-01-17 14:22:00,31.8,17.1,30.35,NNW,341,14.3,22.0,54,0.00,,,0.00,341.00,VWS V14.01,2013-01-17 20:22:00,
2013-01-17 14:24:00,31.8,17.1,30.35,NNW,336,8.8,16.5,54,0.00,,,0.00,323.00,VWS V14.01,2013-01-17 20:24:00,
2013-01-17 14:25:00,31.7,17.0,30.35,West,278,14.3,14.3,54,0.00,,,0.00,322.00,VWS V14.01,2013-01-17 20:25:00,
2013-01-17 14:26:00,31.6,16.9,30.35,NNW,328,9.9,14.3,54,0.00,,,0.00,285.00,VWS V14.01,2013-01-17 20:26:00,
2013-01-17 14:28:00,31.6,17.3,30.35,NW,318,7.7,14.3,55,0.00,,,0.00,297.00,VWS V14.01,2013-01-17 20:28:00,
2013-01-17 14:30:00,31.5,16.8,30.36,NW,317,8.8,15.4,54,0.00,,,0.00,244.00,VWS V14.01,2013-01-17 20:30:00,
2013-01-17 14:31:00,31.4,17.1,30.36,NNW,327,8.8,9.9,55,0.00,,,0.00,299.00,VWS V14.01,2013-01-17 20:31:00,
2013-01-17 14:34:00,31.4,16.7,30.36,NW,312,8.8,17.6,54,0.00,,,0.00,234.00,VWS V14.01,2013-01-17 20:34:00,
2013-01-17 14:35:00,31.4,16.7,30.36,NW,313,13.2,18.7,54,0.00,,,0.00,262.00,VWS V14.01,2013-01-17 20:35:00,
2013-01-17 14:36:00,31.3,16.6,30.36,NW,305,14.3,17.6,54,0.00,,,0.00,244.00,VWS V14.01,2013-01-17 20:36:00,
2013-01-17 14:37:00,31.4,16.7,30.36,NW,304,11.0,16.5,54,0.00,,,0.00,200.00,VWS V14.01,2013-01-17 20:37:00,
2013-01-17 14:39:00,31.5,17.2,30.36,NW,313,7.7,9.9,55,0.00,,,0.00,260.00,VWS V14.01,2013-01-17 20:39:00,
2013-01-17 14:41:00,31.6,17.7,30.36,NNW,339,8.8,11.0,56,0.00,,,0.00,258.00,VWS V14.01,2013-01-17 20:41:00,
2013-01-17 14:42:00,31.6,17.7,30.36,NW,324,9.9,16.5,56,0.00,,,0.00,253.00,VWS V14.01,2013-01-17 20:42:00,
2013-01-17 14:46:00,31.4,17.1,30.36,NNW,347,12.1,17.6,55,0.00,,,0.00,185.00,VWS V14.01,2013-01-17 20:46:00,
2013-01-17 14:47:00,31.4,17.1,30.36,NW,308,12.1,14.3,55,0.00,,,0.00,132.00,VWS V14.01,2013-01-17 20:47:00,
2013-01-17 14:48:00,31.4,17.1,30.36,WNW,288,22.0,22.0,55,0.00,,,0.00,114.00,VWS V14.01,2013-01-17 20:48:00,
2013-01-17 14:51:00,31.5,17.2,30.36,NW,311,7.7,14.3,55,0.00,,,0.00,72.00,VWS V14.01,2013-01-17 20:51:00,
2013-01-17 14:53:00,31.5,17.2,30.36,North,354,12.1,13.2,55,0.00,,,0.00,54.00,VWS V14.01,2013-01-17 20:53:00,
2013-01-17 14:56:00,31.2,16.5,30.36,NW,322,7.7,15.4,54,0.00,,,0.00,88.00,VWS V14.01,2013-01-17 20:56:00,
2013-01-17 14:57:00,31.2,16.9,30.36,NW,321,6.6,16.5,55,0.00,,,0.00,88.00,VWS V14.01,2013-01-17 20:57:00,
2013-01-17 14:58:00,31.2,16.9,30.36,NW,322,17.6,17.6,55,0.00,,,0.00,100.00,VWS V14.01,2013-01-17 20:58:00,
2013-01-17 15:02:00,30.9,16.2,30.36,NNW,345,12.1,23.1,54,0.00,,,0.00,77.00,VWS V14.01,2013-01-17 21:02:00,
2013-01-17 15:03:00,30.8,15.7,30.37,WNW,298,13.2,16.5,53,0.00,,,0.00,88.00,VWS V14.01,2013-01-17 21:03:00,
2013-01-17 15:07:00,30.6,15.5,30.37,NW,309,15.4,16.5,53,0.00,,,0.00,62.00,VWS V14.01,2013-01-17 21:07:00,
2013-01-17 15:08:00,30.6,15.5,30.37,NNW,338,8.8,15.4,53,0.00,,,0.00,62.00,VWS V14.01,2013-01-17 21:08:00,
2013-01-17 15:09:00,30.5,15.9,30.37,NNW,340,15.4,15.4,54,0.00,,,0.00,62.00,VWS V14.01,2013-01-17 21:09:00,
2013-01-17 15:13:00,30.4,15.8,30.37,NW,316,7.7,14.3,54,0.00,,,0.00,46.00,VWS V14.01,2013-01-17 21:13:00,
2013-01-17 15:14:00,30.4,15.8,30.37,NW,309,13.2,13.2,54,0.00,,,0.00,42.00,VWS V14.01,2013-01-17 21:14:00,
2013-01-17 15:15:00,30.4,15.8,30.37,NW,308,6.6,13.2,54,0.00,,,0.00,40.00,VWS V14.01,2013-01-17 21:15:00,
2013-01-17 15:19:00,30.2,16.0,30.37,NW,320,5.5,8.8,55,0.00,,,0.00,77.00,VWS V14.01,2013-01-17 21:19:00,
2013-01-17 15:20:00,30.2,15.6,30.37,NNW,347,11.0,11.0,54,0.00,,,0.00,65.00,VWS V14.01,2013-01-17 21:20:00,
2013-01-17 15:24:00,30.2,15.6,30.37,NW,324,13.2,14.3,54,0.00,,,0.00,51.00,VWS V14.01,2013-01-17 21:24:00,
2013-01-17 15:25:00,30.2,15.6,30.37,NW,325,7.7,14.3,54,0.00,,,0.00,54.00,VWS V14.01,2013-01-17 21:25:00,
2013-01-17 15:30:00,30.3,16.5,30.38,NW,322,5.5,12.1,56,0.00,,,0.00,81.00,VWS V14.01,2013-01-17 21:30:00,
2013-01-17 15:31:00,30.3,16.1,30.38,WNW,297,9.9,12.1,55,0.00,,,0.00,67.00,VWS V14.01,2013-01-17 21:31:00,
2013-01-17 15:35:00,30.3,16.1,30.39,NW,314,11.0,13.2,55,0.00,,,0.00,86.00,VWS V14.01,2013-01-17 21:35:00,
2013-01-17 15:36:00,30.2,15.6,30.39,NNW,328,8.8,12.1,54,0.00,,,0.00,70.00,VWS V14.01,2013-01-17 21:36:00,
2013-01-17 15:40:00,29.9,15.7,30.39,WNW,300,12.1,13.2,55,0.00,,,0.00,33.00,VWS V14.01,2013-01-17 21:40:00,
2013-01-17 15:41:00,29.9,15.7,30.38,NW,312,8.8,13.2,55,0.00,,,0.00,30.00,VWS V14.01,2013-01-17 21:41:00,
2013-01-17 15:42:00,29.9,15.7,30.38,NW,326,7.7,13.2,55,0.00,,,0.00,30.00,VWS V14.01,2013-01-17 21:42:00,
2013-01-17 15:45:00,29.8,16.0,30.39,NW,310,9.9,11.0,56,0.00,,,0.00,35.00,VWS V14.01,2013-01-17 21:45:00,
2013-01-17 15:47:00,29.7,15.5,30.39,NW,313,8.8,13.2,55,0.00,,,0.00,32.00,VWS V14.01,2013-01-17 21:47:00,
2013-01-17 15:48:00,29.7,15.5,30.39,NW,318,7.7,8.8,55,0.00,,,0.00,35.00,VWS V14.01,2013-01-17 21:48:00,
2013-01-17 15:50:00,29.6,15.8,30.39,NW,322,8.8,8.8,56,0.00,,,0.00,39.00,VWS V14.01,2013-01-17 21:50:00,
2013-01-17 15:52:00,29.5,16.2,30.39,North,350,6.6,13.2,57,0.00,,,0.00,30.00,VWS V14.01,2013-01-17 21:52:00,
2013-01-17 15:53:00,29.5,16.2,30.39,NNW,337,7.7,13.2,57,0.00,,,0.00,32.00,VWS V14.01,2013-01-17 21:53:00,
2013-01-17 15:55:00,29.4,16.1,30.39,NW,316,11.0,19.8,57,0.00,,,0.00,23.00,VWS V14.01,2013-01-17 21:55:00,
2013-01-17 15:57:00,29.3,15.6,30.39,NW,310,14.3,15.4,56,0.00,,,0.00,23.00,VWS V14.01,2013-01-17 21:57:00,
2013-01-17 15:58:00,29.3,15.6,30.39,NW,311,11.0,15.4,56,0.00,,,0.00,21.00,VWS V14.01,2013-01-17 21:58:00,
2013-01-17 15:59:00,29.2,15.1,30.39,WNW,302,13.2,13.2,55,0.00,,,0.00,21.00,VWS V14.01,2013-01-17 21:59:00,
2013-01-17 16:02:00,29.0,14.9,30.39,NW,305,8.8,13.2,55,0.00,,,0.00,21.00,VWS V14.01,2013-01-17 22:02:00,
2013-01-17 16:03:00,28.9,14.8,30.39,NW,326,11.0,14.3,55,0.00,,,0.00,21.00,VWS V14.01,2013-01-17 22:03:00,
2013-01-17 16:04:00,28.9,14.8,30.39,NW,326,6.6,15.4,55,0.00,,,0.00,21.00,VWS V14.01,2013-01-17 22:04:00,
2013-01-17 16:07:00,28.7,15.0,30.39,NNW,332,9.9,11.0,56,0.00,,,0.00,19.00,VWS V14.01,2013-01-17 22:07:00,
2013-01-17 16:08:00,28.7,15.0,30.39,North,354,11.0,15.4,56,0.00,,,0.00,19.00,VWS V14.01,2013-01-17 22:08:00,
2013-01-17 16:09:00,28.6,14.5,30.40,NW,311,11.0,11.0,55,0.00,,,0.00,19.00,VWS V14.01,2013-01-17 22:09:00,
2013-01-17 16:13:00,28.5,14.8,30.40,NNW,346,8.8,8.8,56,0.00,,,0.00,19.00,VWS V14.01,2013-01-17 22:13:00,
2013-01-17 16:14:00,28.5,14.8,30.40,NW,315,5.5,8.8,56,0.00,,,0.00,19.00,VWS V14.01,2013-01-17 22:14:00,
2013-01-17 16:18:00,28.2,14.9,30.40,WNW,297,7.7,9.9,57,0.00,,,0.00,18.00,VWS V14.01,2013-01-17 22:18:00,
2013-01-17 16:19:00,28.2,14.9,30.40,NW,319,7.7,9.9,57,0.00,,,0.00,18.00,VWS V14.01,2013-01-17 22:19:00,
2013-01-17 16:20:00,28.2,14.9,30.40,NW,316,7.7,11.0,57,0.00,,,0.00,16.00,VWS V14.01,2013-01-17 22:20:00,
2013-01-17 16:24:00,28.0,14.8,30.40,NW,309,6.6,8.8,57,0.00,,,0.00,16.00,VWS V14.01,2013-01-17 22:24:00,
2013-01-17 16:26:00,28.0,15.1,30.40,NW,316,3.3,5.5,58,0.00,,,0.00,14.00,VWS V14.01,2013-01-17 22:26:00,
2013-01-17 16:29:00,27.9,15.1,30.40,NNW,335,5.5,7.7,58,0.00,,,0.00,12.00,VWS V14.01,2013-01-17 22:29:00,
2013-01-17 16:30:00,27.8,15.0,30.40,NW,315,5.5,8.8,58,0.00,,,0.00,12.00,VWS V14.01,2013-01-17 22:30:00,
2013-01-17 16:31:00,27.8,15.0,30.40,WNW,297,3.3,4.4,58,0.00,,,0.00,12.00,VWS V14.01,2013-01-17 22:31:00,
2013-01-17 16:34:00,27.7,15.3,30.40,NW,308,6.6,8.8,59,0.00,,,0.00,11.00,VWS V14.01,2013-01-17 22:34:00,
2013-01-17 16:35:00,27.6,15.2,30.40,NNW,328,3.3,8.8,59,0.00,,,0.00,11.00,VWS V14.01,2013-01-17 22:35:00,
2013-01-17 16:37:00,27.5,15.1,30.40,NNW,328,6.6,6.6,59,0.00,,,0.00,11.00,VWS V14.01,2013-01-17 22:37:00,
2013-01-17 16:39:00,27.4,15.0,30.40,NW,304,5.5,6.6,59,0.00,,,0.00,9.00,VWS V14.01,2013-01-17 22:39:00,
2013-01-17 16:40:00,27.4,15.0,30.40,WNW,303,3.3,6.6,59,0.00,,,0.00,9.00,VWS V14.01,2013-01-17 22:40:00,
2013-01-17 16:42:00,27.3,15.3,30.40,NW,310,3.3,4.4,60,0.00,,,0.00,7.00,VWS V14.01,2013-01-17 22:42:00,
2013-01-17 16:45:00,27.2,15.2,30.40,NW,311,4.4,6.6,60,0.00,,,0.00,7.00,VWS V14.01,2013-01-17 22:45:00,
2013-01-17 16:46:00,27.2,15.2,30.40,NW,311,5.5,5.5,60,0.00,,,0.00,5.00,VWS V14.01,2013-01-17 22:46:00,
2013-01-17 16:48:00,27.1,15.1,30.41,WNW,303,5.5,9.9,60,0.00,,,0.00,5.00,VWS V14.01,2013-01-17 22:48:00,
2013-01-17 16:50:00,27.0,15.4,30.41,NW,313,5.5,5.5,61,0.00,,,0.00,5.00,VWS V14.01,2013-01-17 22:50:00,
2013-01-17 16:51:00,26.9,15.3,30.41,NW,324,5.5,5.5,61,0.00,,,0.00,0.00,VWS V14.01,2013-01-17 22:51:00,
2013-01-17 16:53:00,26.8,15.2,30.41,NW,310,4.4,7.7,61,0.00,,,0.00,0.00,VWS V14.01,2013-01-17 22:53:00,
2013-01-17 16:56:00,26.6,15.4,30.41,NW,312,4.4,7.7,62,0.00,,,0.00,0.00,VWS V14.01,2013-01-17 22:56:00,
2013-01-17 16:57:00,26.6,15.0,30.41,NW,306,5.5,8.8,61,0.00,,,0.00,0.00,VWS V14.01,2013-01-17 22:57:00,
2013-01-17 17:00:00,26.5,15.3,30.41,NW,307,7.7,7.7,62,0.00,,,0.00,0.00,VWS V14.01,2013-01-17 23:00:00,
2013-01-17 17:01:00,26.4,15.2,30.41,WNW,299,4.4,5.5,62,0.00,,,0.00,0.00,VWS V14.01,2013-01-17 23:01:00,
2013-01-17 17:02:00,26.3,15.1,30.41,WNW,303,6.6,6.6,62,0.00,,,0.00,0.00,VWS V14.01,2013-01-17 23:02:00,
2013-01-17 17:05:00,26.2,15.3,30.41,NW,309,5.5,6.6,63,0.00,,,0.00,0.00,VWS V14.01,2013-01-17 23:05:00,
2013-01-17 17:06:00,26.1,15.6,30.41,NW,308,3.3,4.4,64,0.00,,,0.00,0.00,VWS V14.01,2013-01-17 23:06:00,
2013-01-17 17:07:00,26.1,15.6,30.41,WNW,300,4.4,4.4,64,0.00,,,0.00,0.00,VWS V14.01,2013-01-17 23:07:00,
2013-01-17 17:10:00,25.9,15.4,30.41,NW,319,4.4,6.6,64,0.00,,,0.00,0.00,VWS V14.01,2013-01-17 23:10:00,
2013-01-17 17:11:00,25.8,15.3,30.41,NW,311,4.4,5.5,64,0.00,,,0.00,0.00,VWS V14.01,2013-01-17 23:11:00,
2013-01-17 17:12:00,25.7,15.6,30.42,NW,317,3.3,4.4,65,0.00,,,0.00,0.00,VWS V14.01,2013-01-17 23:12:00,
2013-01-17 17:13:00,25.6,15.5,30.41,WNW,302,2.2,5.5,65,0.00,,,0.00,0.00,VWS V14.01,2013-01-17 23:13:00,
2013-01-17 17:15:00,25.4,15.6,30.42,WNW,303,7.7,7.7,66,0.00,,,0.00,0.00,VWS V14.01,2013-01-17 23:15:00,
2013-01-17 17:16:00,25.4,15.6,30.42,WNW,296,5.5,7.7,66,0.00,,,0.00,0.00,VWS V14.01,2013-01-17 23:16:00,
2013-01-17 17:17:00,25.3,15.6,30.41,NW,308,7.7,7.7,66,0.00,,,0.00,0.00,VWS V14.01,2013-01-17 23:17:00,
2013-01-17 17:19:00,25.2,15.4,30.41,NW,317,3.3,5.5,66,0.00,,,0.00,0.00,VWS V14.01,2013-01-17 23:19:00,
2013-01-17 17:21:00,25.1,15.4,30.41,NW,307,3.3,6.6,66,0.00,,,0.00,0.00,VWS V14.01,2013-01-17 23:21:00,
2013-01-17 17:23:00,25.1,15.4,30.41,WNW,294,4.4,5.5,66,0.00,,,0.00,0.00,VWS V14.01,2013-01-17 23:23:00,
2013-01-17 17:24:00,25.1,15.4,30.41,NW,306,3.3,4.4,66,0.00,,,0.00,0.00,VWS V14.01,2013-01-17 23:24:00,
2013-01-17 17:26:00,25.0,15.3,30.41,WNW,295,5.5,6.6,66,0.00,,,0.00,0.00,VWS V14.01,2013-01-17 23:26:00,
2013-01-17 17:27:00,25.0,15.3,30.41,WNW,293,4.4,5.5,66,0.00,,,0.00,0.00,VWS V14.01,2013-01-17 23:27:00,
2013-01-17 17:28:00,25.0,15.3,30.41,WNW,283,3.3,5.5,66,0.00,,,0.00,0.00,VWS V14.01,2013-01-17 23:28:00,
2013-01-17 17:29:00,24.9,15.2,30.41,WNW,297,2.2,5.5,66,0.00,,,0.00,0.00,VWS V14.01,2013-01-17 23:29:00,
2013-01-17 17:31:00,24.8,15.1,30.41,NW,311,4.4,5.5,66,0.00,,,0.00,0.00,VWS V14.01,2013-01-17 23:31:00,
2013-01-17 17:32:00,24.8,15.1,30.41,NW,310,3.3,5.5,66,0.00,,,0.00,0.00,VWS V14.01,2013-01-17 23:32:00,
2013-01-17 17:34:00,24.7,15.0,30.41,NW,317,2.2,4.4,66,0.00,,,0.00,0.00,VWS V14.01,2013-01-17 23:34:00,
2013-01-17 17:36:00,24.6,14.9,30.41,NW,316,4.4,4.4,66,0.00,,,0.00,0.00,VWS V14.01,2013-01-17 23:36:00,
2013-01-17 17:37:00,24.5,14.8,30.41,WNW,296,4.4,5.5,66,0.00,,,0.00,0.00,VWS V14.01,2013-01-17 23:37:00,
2013-01-17 17:39:00,24.5,14.8,30.41,WNW,299,2.2,5.5,66,0.00,,,0.00,0.00,VWS V14.01,2013-01-17 23:39:00,
2013-01-17 17:40:00,24.5,14.8,30.41,WNW,299,2.2,5.5,66,0.00,,,0.00,0.00,VWS V14.01,2013-01-17 23:40:00,
2013-01-17 17:41:00,24.5,15.1,30.41,NW,308,4.4,4.4,67,0.00,,,0.00,0.00,VWS V14.01,2013-01-17 23:41:00,
2013-01-17 17:43:00,24.4,15.0,30.41,NW,312,2.2,3.3,67,0.00,,,0.00,0.00,VWS V14.01,2013-01-17 23:43:00,
2013-01-17 17:45:00,24.4,15.0,30.41,NW,308,3.3,3.3,67,0.00,,,0.00,0.00,VWS V14.01,2013-01-17 23:45:00,
2013-01-17 17:47:00,24.3,14.9,30.41,NW,316,3.3,4.4,67,0.00,,,0.00,0.00,VWS V14.01,2013-01-17 23:47:00,
2013-01-17 17:48:00,24.3,14.9,30.41,NW,306,5.5,5.5,67,0.00,,,0.00,0.00,VWS V14.01,2013-01-17 23:48:00,
2013-01-17 17:50:00,24.3,14.9,30.42,WNW,303,4.4,5.5,67,0.00,,,0.00,0.00,VWS V14.01,2013-01-17 23:50:00,
2013-01-17 17:52:00,24.2,14.8,30.42,WNW,298,6.6,6.6,67,0.00,,,0.00,0.00,VWS V14.01,2013-01-17 23:52:00,
2013-01-17 17:53:00,24.2,14.8,30.42,NW,304,4.4,5.5,67,0.00,,,0.00,0.00,VWS V14.01,2013-01-17 23:53:00,
2013-01-17 17:55:00,24.1,14.7,30.42,WNW,303,3.3,5.5,67,0.00,,,0.00,0.00,VWS V14.01,2013-01-17 23:55:00,
2013-01-17 17:56:00,24.1,14.7,30.42,WNW,297,3.3,6.6,67,0.00,,,0.00,0.00,VWS V14.01,2013-01-17 23:56:00,
2013-01-17 17:57:00,24.0,14.6,30.42,NW,305,3.3,3.3,67,0.00,,,0.00,0.00,VWS V14.01,2013-01-17 23:57:00,
2013-01-17 17:59:00,24.0,14.6,30.43,NW,304,2.2,2.2,67,0.00,,,0.00,0.00,VWS V14.01,2013-01-17 23:59:00,
2013-01-17 18:00:00,23.9,14.6,30.43,NW,304,3.3,4.4,67,0.00,,,0.00,0.00,VWS V14.01,2013-01-18 00:00:00,
2013-01-17 18:01:00,23.9,14.6,30.43,WNW,301,5.5,5.5,67,0.00,,,0.00,0.00,VWS V14.01,2013-01-18 00:01:00,
2013-01-17 18:03:00,23.8,14.5,30.43,NW,310,3.3,3.3,67,0.00,,,0.00,0.00,VWS V14.01,2013-01-18 00:03:00,
2013-01-17 18:05:00,23.8,14.5,30.43,WNW,290,4.4,5.5,67,0.00,,,0.00,0.00,VWS V14.01,2013-01-18 00:05:00,
2013-01-17 18:06:00,23.8,14.5,30.43,WNW,291,3.3,4.4,67,0.00,,,0.00,0.00,VWS V14.01,2013-01-18 00:06:00,
2013-01-17 18:07:00,23.8,14.5,30.43,WNW,298,3.3,4.4,67,0.00,,,0.00,0.00,VWS V14.01,2013-01-18 00:07:00,
2013-01-17 18:08:00,23.8,14.5,30.43,WNW,288,4.4,4.4,67,0.00,,,0.00,0.00,VWS V14.01,2013-01-18 00:08:00,
2013-01-17 18:10:00,23.8,14.8,30.44,WNW,303,3.3,5.5,68,0.00,,,0.00,0.00,VWS V14.01,2013-01-18 00:10:00,
2013-01-17 18:11:00,23.8,14.5,30.44,WNW,293,3.3,5.5,67,0.00,,,0.00,0.00,VWS V14.01,2013-01-18 00:11:00,
2013-01-17 18:12:00,23.8,14.8,30.44,WNW,292,2.2,3.3,68,0.00,,,0.00,0.00,VWS V14.01,2013-01-18 00:12:00,
2013-01-17 18:14:00,23.7,14.7,30.44,WNW,293,3.3,5.5,68,0.00,,,0.00,0.00,VWS V14.01,2013-01-18 00:14:00,
2013-01-17 18:16:00,23.5,14.8,30.44,WNW,289,3.3,4.4,69,0.00,,,0.00,0.00,VWS V14.01,2013-01-18 00:16:00,
2013-01-17 18:17:00,23.4,14.8,30.44,WNW,289,4.4,4.4,69,0.00,,,0.00,0.00,VWS V14.01,2013-01-18 00:17:00,
2013-01-17 18:19:00,23.3,15.0,30.44,WNW,293,3.3,3.3,70,0.00,,,0.00,0.00,VWS V14.01,2013-01-18 00:19:00,
2013-01-17 18:21:00,23.1,14.8,30.44,WNW,295,2.2,2.2,70,0.00,,,0.00,0.00,VWS V14.01,2013-01-18 00:21:00,
2013-01-17 18:22:00,23.1,14.8,30.44,WNW,295,2.2,3.3,70,0.00,,,0.00,0.00,VWS V14.01,2013-01-18 00:22:00,
2013-01-17 18:23:00,23.0,15.0,30.44,WNW,295,2.2,4.4,71,0.00,,,0.00,0.00,VWS V14.01,2013-01-18 00:23:00,
2013-01-17 18:24:00,22.9,14.9,30.44,WNW,289,2.2,2.2,71,0.00,,,0.00,0.00,VWS V14.01,2013-01-18 00:24:00,
2013-01-17 18:26:00,22.9,14.9,30.44,WNW,289,2.2,2.2,71,0.00,,,0.00,0.00,VWS V14.01,2013-01-18 00:26:00,
2013-01-17 18:28:00,22.8,14.8,30.44,WNW,287,3.3,3.3,71,0.00,,,0.00,0.00,VWS V14.01,2013-01-18 00:28:00,
2013-01-17 18:29:00,22.8,14.8,30.44,West,277,4.4,4.4,71,0.00,,,0.00,0.00,VWS V14.01,2013-01-18 00:29:00,
2013-01-17 18:32:00,22.8,14.8,30.44,West,279,4.4,4.4,71,0.00,,,0.00,0.00,VWS V14.01,2013-01-18 00:32:00,
2013-01-17 18:33:00,22.8,14.8,30.44,West,280,4.4,5.5,71,0.00,,,0.00,0.00,VWS V14.01,2013-01-18 00:33:00,
2013-01-17 18:34:00,22.8,14.8,30.44,West,280,2.2,5.5,71,0.00,,,0.00,0.00,VWS V14.01,2013-01-18 00:34:00,
2013-01-17 18:35:00,22.8,14.8,30.44,WNW,292,4.4,5.5,71,0.00,,,0.00,0.00,VWS V14.01,2013-01-18 00:35:00,
2013-01-17 18:37:00,22.7,15.1,30.44,West,277,3.3,3.3,72,0.00,,,0.00,0.00,VWS V14.01,2013-01-18 00:37:00,
2013-01-17 18:39:00,22.7,15.1,30.45,West,281,3.3,4.4,72,0.00,,,0.00,0.00,VWS V14.01,2013-01-18 00:39:00,
2013-01-17 18:40:00,22.7,15.1,30.45,West,272,2.2,5.5,72,0.00,,,0.00,0.00,VWS V14.01,2013-01-18 00:40:00,
2013-01-17 18:42:00,22.7,15.1,30.44,WNW,285,6.6,6.6,72,0.00,,,0.00,0.00,VWS V14.01,2013-01-18 00:42:00,
2013-01-17 18:44:00,22.7,15.4,30.44,West,268,2.2,3.3,73,0.00,,,0.00,0.00,VWS V14.01,2013-01-18 00:44:00,
2013-01-17 18:45:00,22.7,15.4,30.44,West,269,4.4,4.4,73,0.00,,,0.00,0.00,VWS V14.01,2013-01-18 00:45:00,
2013-01-17 18:46:00,22.6,15.3,30.44,West,277,3.3,4.4,73,0.00,,,0.00,0.00,VWS V14.01,2013-01-18 00:46:00,
2013-01-17 18:47:00,22.6,15.3,30.44,West,277,3.3,3.3,73,0.00,,,0.00,0.00,VWS V14.01,2013-01-18 00:47:00,
2013-01-17 18:49:00,22.6,15.3,30.45,WNW,283,3.3,3.3,73,0.00,,,0.00,0.00,VWS V14.01,2013-01-18 00:49:00,
2013-01-17 18:50:00,22.6,15.3,30.45,WNW,289,2.2,4.4,73,0.00,,,0.00,0.00,VWS V14.01,2013-01-18 00:50:00,
2013-01-17 18:51:00,22.6,15.3,30.45,West,278,1.1,4.4,73,0.00,,,0.00,0.00,VWS V14.01,2013-01-18 00:51:00,
2013-01-17 18:52:00,22.6,15.3,30.45,West,278,5.5,5.5,73,0.00,,,0.00,0.00,VWS V14.01,2013-01-18 00:52:00,
2013-01-17 18:54:00,22.6,15.3,30.45,West,276,3.3,3.3,73,0.00,,,0.00,0.00,VWS V14.01,2013-01-18 00:54:00,
2013-01-17 18:55:00,22.5,15.2,30.45,West,276,4.4,4.4,73,0.00,,,0.00,0.00,VWS V14.01,2013-01-18 00:55:00,
2013-01-17 18:57:00,22.6,15.6,30.45,NW,316,5.5,5.5,74,0.00,,,0.00,0.00,VWS V14.01,2013-01-18 00:57:00,
2013-01-17 18:59:00,22.5,15.5,30.45,NW,314,2.2,2.2,74,0.00,,,0.00,0.00,VWS V14.01,2013-01-18 00:59:00,
2013-01-17 19:00:00,22.4,15.4,30.45,NW,314,2.2,3.3,74,0.00,,,0.00,0.00,VWS V14.01,2013-01-18 01:00:00,
2013-01-17 19:03:00,22.3,15.3,30.45,West,273,2.2,3.3,74,0.00,,,0.00,0.00,VWS V14.01,2013-01-18 01:03:00,
2013-01-17 19:05:00,22.2,15.2,30.46,WNW,289,1.1,3.3,74,0.00,,,0.00,0.00,VWS V14.01,2013-01-18 01:05:00,
2013-01-17 19:09:00,22.1,15.1,30.45,WNW,294,2.2,2.2,74,0.00,,,0.00,0.00,VWS V14.01,2013-01-18 01:09:00,
2013-01-17 19:10:00,22.1,15.1,30.45,WNW,293,1.1,2.2,74,0.00,,,0.00,0.00,VWS V14.01,2013-01-18 01:10:00,
2013-01-17 19:12:00,22.1,15.4,30.45,WNW,284,2.2,3.3,75,0.00,,,0.00,0.00,VWS V14.01,2013-01-18 01:12:00,
2013-01-17 19:14:00,22.1,15.4,30.45,WNW,284,2.2,3.3,75,0.00,,,0.00,0.00,VWS V14.01,2013-01-18 01:14:00,
2013-01-17 19:15:00,22.0,15.3,30.46,WNW,294,4.4,4.4,75,0.00,,,0.00,0.00,VWS V14.01,2013-01-18 01:15:00,
2013-01-17 19:17:00,22.0,15.3,30.46,WNW,290,3.3,5.5,75,0.00,,,0.00,0.00,VWS V14.01,2013-01-18 01:17:00,
2013-01-17 19:19:00,21.9,15.2,30.46,WNW,287,2.2,3.3,75,0.00,,,0.00,0.00,VWS V14.01,2013-01-18 01:19:00,
2013-01-17 19:20:00,21.8,15.1,30.46,WNW,287,3.3,3.3,75,0.00,,,0.00,0.00,VWS V14.01,2013-01-18 01:20:00,
2013-01-17 19:23:00,21.8,15.1,30.46,WNW,295,2.2,3.3,75,0.00,,,0.00,0.00,VWS V14.01,2013-01-18 01:23:00,
2013-01-17 19:24:00,21.7,15.0,30.46,WNW,291,2.2,2.2,75,0.00,,,0.00,0.00,VWS V14.01,2013-01-18 01:24:00,
2013-01-17 19:25:00,21.7,15.0,30.46,WNW,289,3.3,4.4,75,0.00,,,0.00,0.00,VWS V14.01,2013-01-18 01:25:00,
2013-01-17 19:26:00,21.7,15.3,30.46,WNW,287,2.2,3.3,76,0.00,,,0.00,0.00,VWS V14.01,2013-01-18 01:26:00,
2013-01-17 19:29:00,21.7,15.3,30.45,WNW,287,2.2,2.2,76,0.00,,,0.00,0.00,VWS V14.01,2013-01-18 01:29:00,
2013-01-17 19:30:00,21.6,15.2,30.46,WNW,287,2.2,2.2,76,0.00,,,0.00,0.00,VWS V14.01,2013-01-18 01:30:00,
2013-01-17 19:32:00,21.6,15.2,30.45,WNW,287,3.3,3.3,76,0.00,,,0.00,0.00,VWS V14.01,2013-01-18 01:32:00,
2013-01-17 19:34:00,21.6,15.2,30.45,WNW,287,2.2,3.3,76,0.00,,,0.00,0.00,VWS V14.01,2013-01-18 01:34:00,
2013-01-17 19:35:00,21.6,15.2,30.46,WNW,287,2.2,2.2,76,0.00,,,0.00,0.00,VWS V14.01,2013-01-18 01:35:00,
2013-01-17 19:37:00,21.6,15.2,30.46,WNW,287,3.3,3.3,76,0.00,,,0.00,0.00,VWS V14.01,2013-01-18 01:37:00,
2013-01-17 19:39:00,21.5,15.1,30.46,WNW,287,3.3,3.3,76,0.00,,,0.00,0.00,VWS V14.01,2013-01-18 01:39:00,
2013-01-17 19:40:00,21.4,15.0,30.46,WNW,287,2.2,2.2,76,0.00,,,0.00,0.00,VWS V14.01,2013-01-18 01:40:00,
2013-01-17 19:41:00,21.4,15.0,30.46,WNW,297,0.0,3.3,76,0.00,,,0.00,0.00,VWS V14.01,2013-01-18 01:41:00,
2013-01-17 19:42:00,21.3,14.9,30.45,WNW,297,0.0,1.1,76,0.00,,,0.00,0.00,VWS V14.01,2013-01-18 01:42:00,
2013-01-17 19:44:00,21.2,14.8,30.46,WNW,291,0.0,2.2,76,0.00,,,0.00,0.00,VWS V14.01,2013-01-18 01:44:00,
2013-01-17 19:45:00,21.2,14.8,30.46,WNW,291,1.1,2.2,76,0.00,,,0.00,0.00,VWS V14.01,2013-01-18 01:45:00,
2013-01-17 19:47:00,21.2,15.1,30.46,WNW,291,2.2,2.2,77,0.00,,,0.00,0.00,VWS V14.01,2013-01-18 01:47:00,
2013-01-17 19:49:00,21.2,14.8,30.46,WNW,291,0.0,1.1,76,0.00,,,0.00,0.00,VWS V14.01,2013-01-18 01:49:00,
2013-01-17 19:51:00,21.2,14.8,30.45,WNW,291,1.1,2.2,76,0.00,,,0.00,0.00,VWS V14.01,2013-01-18 01:51:00,
2013-01-17 19:53:00,21.2,14.8,30.46,WNW,291,2.2,2.2,76,0.00,,,0.00,0.00,VWS V14.01,2013-01-18 01:53:00,
2013-01-17 19:55:00,21.3,14.9,30.46,WNW,291,3.3,3.3,76,0.00,,,0.00,0.00,VWS V14.01,2013-01-18 01:55:00,
2013-01-17 19:56:00,21.3,14.9,30.46,WNW,291,1.1,2.2,76,0.00,,,0.00,0.00,VWS V14.01,2013-01-18 01:56:00,
2013-01-17 19:59:00,21.3,14.9,30.46,WNW,291,2.2,2.2,76,0.00,,,0.00,0.00,VWS V14.01,2013-01-18 01:59:00,
2013-01-17 20:00:00,21.3,14.9,30.46,WNW,291,1.1,2.2,76,0.00,,,0.00,0.00,VWS V14.01,2013-01-18 02:00:00,
2013-01-17 20:01:00,21.4,15.0,30.46,WNW,291,3.3,3.3,76,0.00,,,0.00,0.00,VWS V14.01,2013-01-18 02:01:00,
2013-01-17 20:02:00,21.4,15.0,30.46,WNW,291,3.3,3.3,76,0.00,,,0.00,0.00,VWS V14.01,2013-01-18 02:02:00,
2013-01-17 20:04:00,21.5,15.1,30.46,WNW,287,2.2,3.3,76,0.00,,,0.00,0.00,VWS V14.01,2013-01-18 02:04:00,
2013-01-17 20:05:00,21.5,15.1,30.46,WNW,287,2.2,3.3,76,0.00,,,0.00,0.00,VWS V14.01,2013-01-18 02:05:00,
2013-01-17 20:06:00,21.5,15.1,30.46,WNW,285,3.3,3.3,76,0.00,,,0.00,0.00,VWS V14.01,2013-01-18 02:06:00,
2013-01-17 20:07:00,21.5,15.1,30.46,WNW,284,3.3,3.3,76,0.00,,,0.00,0.00,VWS V14.01,2013-01-18 02:07:00,
2013-01-17 20:09:00,21.5,15.1,30.46,WNW,282,3.3,4.4,76,0.00,,,0.00,0.00,VWS V14.01,2013-01-18 02:09:00,
2013-01-17 20:11:00,21.5,15.1,30.46,WNW,282,3.3,4.4,76,0.00,,,0.00,0.00,VWS V14.01,2013-01-18 02:11:00,
2013-01-17 20:12:00,21.5,15.1,30.46,WNW,287,2.2,2.2,76,0.00,,,0.00,0.00,VWS V14.01,2013-01-18 02:12:00,
2013-01-17 20:16:00,21.4,15.0,30.46,NW,308,2.2,2.2,76,0.00,,,0.00,0.00,VWS V14.01,2013-01-18 02:16:00,
2013-01-17 20:17:00,21.4,15.0,30.46,NW,304,3.3,3.3,76,0.00,,,0.00,0.00,VWS V14.01,2013-01-18 02:17:00,
2013-01-17 20:18:00,21.3,14.9,30.46,NW,305,2.2,2.2,76,0.00,,,0.00,0.00,VWS V14.01,2013-01-18 02:18:00,
2013-01-17 20:21:00,21.3,14.9,30.46,WNW,299,2.2,2.2,76,0.00,,,0.00,0.00,VWS V14.01,2013-01-18 02:21:00,
2013-01-17 20:22:00,21.3,14.9,30.46,WNW,299,1.1,2.2,76,0.00,,,0.00,0.00,VWS V14.01,2013-01-18 02:22:00,
2013-01-17 20:23:00,21.2,14.8,30.46,WNW,292,3.3,3.3,76,0.00,,,0.00,0.00,VWS V14.01,2013-01-18 02:23:00,
2013-01-17 20:24:00,21.2,14.8,30.46,WNW,292,2.2,3.3,76,0.00,,,0.00,0.00,VWS V14.01,2013-01-18 02:24:00,
2013-01-17 20:26:00,21.4,15.0,30.46,WNW,291,1.1,2.2,76,0.00,,,0.00,0.00,VWS V14.01,2013-01-18 02:26:00,
2013-01-17 20:27:00,21.4,15.0,30.46,WNW,291,2.2,2.2,76,0.00,,,0.00,0.00,VWS V14.01,2013-01-18 02:27:00,
2013-01-17 20:29:00,21.4,15.0,30.46,WNW,291,1.1,2.2,76,0.00,,,0.00,0.00,VWS V14.01,2013-01-18 02:29:00,
2013-01-17 20:33:00,21.4,15.0,30.46,WNW,291,0.0,1.1,76,0.00,,,0.00,0.00,VWS V14.01,2013-01-18 02:33:00,
2013-01-17 20:34:00,21.5,15.1,30.46,WNW,291,0.0,0.0,76,0.00,,,0.00,0.00,VWS V14.01,2013-01-18 02:34:00,
2013-01-17 20:35:00,21.6,14.9,30.46,WNW,291,0.0,0.0,75,0.00,,,0.00,0.00,VWS V14.01,2013-01-18 02:35:00,
2013-01-17 20:38:00,21.5,14.8,30.46,WNW,291,0.0,1.1,75,0.00,,,0.00,0.00,VWS V14.01,2013-01-18 02:38:00,
2013-01-17 20:40:00,21.4,14.7,30.47,WNW,291,0.0,1.1,75,0.00,,,0.00,0.00,VWS V14.01,2013-01-18 02:40:00,
2013-01-17 20:43:00,21.0,14.6,30.46,WNW,291,0.0,0.0,76,0.00,,,0.00,0.00,VWS V14.01,2013-01-18 02:43:00,
2013-01-17 20:46:00,20.8,14.4,30.47,WNW,291,0.0,0.0,76,0.00,,,0.00,0.00,VWS V14.01,2013-01-18 02:46:00,
2013-01-17 20:47:00,20.7,14.6,30.47,WNW,291,0.0,1.1,77,0.00,,,0.00,0.00,VWS V14.01,2013-01-18 02:47:00,
2013-01-17 20:48:00,20.7,14.6,30.47,WNW,291,0.0,0.0,77,0.00,,,0.00,0.00,VWS V14.01,2013-01-18 02:48:00,
2013-01-17 20:49:00,20.7,14.6,30.47,WNW,291,0.0,0.0,77,0.00,,,0.00,0.00,VWS V14.01,2013-01-18 02:49:00,
2013-01-17 20:51:00,20.7,14.6,30.47,WNW,291,0.0,0.0,77,0.00,,,0.00,0.00,VWS V14.01,2013-01-18 02:51:00,
2013-01-17 20:53:00,20.7,14.4,30.47,WNW,291,0.0,0.0,76,0.00,,,0.00,0.00,VWS V14.01,2013-01-18 02:53:00,
2013-01-17 20:54:00,20.7,14.6,30.47,WNW,291,0.0,2.2,77,0.00,,,0.00,0.00,VWS V14.01,2013-01-18 02:54:00,
2013-01-17 20:57:00,20.8,14.4,30.47,WNW,291,0.0,0.0,76,0.00,,,0.00,0.00,VWS V14.01,2013-01-18 02:57:00,
2013-01-17 20:59:00,20.8,14.4,30.47,WNW,291,0.0,1.1,76,0.00,,,0.00,0.00,VWS V14.01,2013-01-18 02:59:00,
2013-01-17 21:00:00,20.8,14.4,30.47,WNW,291,1.1,1.1,76,0.00,,,0.00,0.00,VWS V14.01,2013-01-18 03:00:00,
2013-01-17 21:02:00,20.8,14.7,30.47,WNW,291,1.1,1.1,77,0.00,,,0.00,0.00,VWS V14.01,2013-01-18 03:02:00,
2013-01-17 21:04:00,20.9,14.5,30.47,WNW,291,1.1,2.2,76,0.00,,,0.00,0.00,VWS V14.01,2013-01-18 03:04:00,
2013-01-17 21:05:00,20.9,14.5,30.47,WNW,291,1.1,1.1,76,0.00,,,0.00,0.00,VWS V14.01,2013-01-18 03:05:00,
2013-01-17 21:06:00,20.9,14.5,30.47,WNW,291,1.1,2.2,76,0.00,,,0.00,0.00,VWS V14.01,2013-01-18 03:06:00,
2013-01-17 21:08:00,20.8,14.4,30.47,WNW,291,0.0,1.1,76,0.00,,,0.00,0.00,VWS V14.01,2013-01-18 03:08:00,
2013-01-17 21:10:00,20.7,14.4,30.47,WNW,291,0.0,0.0,76,0.00,,,0.00,0.00,VWS V14.01,2013-01-18 03:10:00,
2013-01-17 21:11:00,20.7,14.4,30.47,WNW,291,1.1,1.1,76,0.00,,,0.00,0.00,VWS V14.01,2013-01-18 03:11:00,
2013-01-17 21:12:00,20.7,14.4,30.47,WNW,291,0.0,0.0,76,0.00,,,0.00,0.00,VWS V14.01,2013-01-18 03:12:00,
2013-01-17 21:13:00,20.6,14.2,30.47,WNW,291,0.0,0.0,76,0.00,,,0.00,0.00,VWS V14.01,2013-01-18 03:13:00,
2013-01-17 21:15:00,20.5,14.4,30.47,WNW,291,0.0,0.0,77,0.00,,,0.00,0.00,VWS V14.01,2013-01-18 03:15:00,
2013-01-17 21:16:00,20.4,14.4,30.47,WNW,291,1.1,1.1,77,0.00,,,0.00,0.00,VWS V14.01,2013-01-18 03:16:00,
2013-01-17 21:18:00,20.2,14.2,30.47,WNW,291,0.0,1.1,77,0.00,,,0.00,0.00,VWS V14.01,2013-01-18 03:18:00,
2013-01-17 21:19:00,20.0,14.0,30.47,WNW,291,1.1,1.1,77,0.00,,,0.00,0.00,VWS V14.01,2013-01-18 03:19:00,
2013-01-17 21:21:00,19.7,13.7,30.47,WNW,291,0.0,1.1,77,0.00,,,0.00,0.00,VWS V14.01,2013-01-18 03:21:00,
2013-01-17 21:22:00,19.7,14.0,30.47,WNW,291,0.0,1.1,78,0.00,,,0.00,0.00,VWS V14.01,2013-01-18 03:22:00,
2013-01-17 21:23:00,19.7,14.0,30.47,WNW,291,0.0,0.0,78,0.00,,,0.00,0.00,VWS V14.01,2013-01-18 03:23:00,
2013-01-17 21:24:00,19.7,14.0,30.47,WNW,291,0.0,0.0,78,0.00,,,0.00,0.00,VWS V14.01,2013-01-18 03:24:00,
2013-01-17 21:27:00,19.6,13.9,30.47,WNW,291,1.1,1.1,78,0.00,,,0.00,0.00,VWS V14.01,2013-01-18 03:27:00,
2013-01-17 21:28:00,19.6,13.9,30.47,WNW,291,1.1,1.1,78,0.00,,,0.00,0.00,VWS V14.01,2013-01-18 03:28:00,
2013-01-17 21:29:00,19.6,13.9,30.47,WNW,291,2.2,2.2,78,0.00,,,0.00,0.00,VWS V14.01,2013-01-18 03:29:00,
2013-01-17 21:31:00,19.7,14.3,30.47,WNW,291,2.2,3.3,79,0.00,,,0.00,0.00,VWS V14.01,2013-01-18 03:31:00,
2013-01-17 21:32:00,19.7,14.3,30.47,WNW,289,2.2,3.3,79,0.00,,,0.00,0.00,VWS V14.01,2013-01-18 03:32:00,
2013-01-17 21:33:00,19.8,14.4,30.47,WNW,289,2.2,2.2,79,0.00,,,0.00,0.00,VWS V14.01,2013-01-18 03:33:00,
2013-01-17 21:34:00,19.8,14.4,30.47,WNW,289,1.1,2.2,79,0.00,,,0.00,0.00,VWS V14.01,2013-01-18 03:34:00,
2013-01-17 21:37:00,19.9,14.4,30.47,WNW,287,1.1,2.2,79,0.00,,,0.00,0.00,VWS V14.01,2013-01-18 03:37:00,
2013-01-17 21:38:00,19.9,14.4,30.47,WNW,287,2.2,2.2,79,0.00,,,0.00,0.00,VWS V14.01,2013-01-18 03:38:00,
2013-01-17 21:39:00,20.0,14.6,30.47,WNW,287,1.1,2.2,79,0.00,,,0.00,0.00,VWS V14.01,2013-01-18 03:39:00,
2013-01-17 21:40:00,20.0,14.6,30.47,WNW,287,1.1,2.2,79,0.00,,,0.00,0.00,VWS V14.01,2013-01-18 03:40:00,
2013-01-17 21:43:00,20.0,14.6,30.47,WNW,287,1.1,1.1,79,0.00,,,0.00,0.00,VWS V14.01,2013-01-18 03:43:00,
2013-01-17 21:44:00,20.0,14.6,30.47,WNW,287,0.0,1.1,79,0.00,,,0.00,0.00,VWS V14.01,2013-01-18 03:44:00,
2013-01-17 21:45:00,20.0,14.6,30.47,WNW,287,1.1,1.1,79,0.00,,,0.00,0.00,VWS V14.01,2013-01-18 03:45:00,
2013-01-17 21:49:00,20.0,14.6,30.47,WNW,287,3.3,3.3,79,0.00,,,0.00,0.00,VWS V14.01,2013-01-18 03:49:00,
2013-01-17 21:50:00,20.1,14.6,30.47,West,279,2.2,3.3,79,0.00,,,0.00,0.00,VWS V14.01,2013-01-18 03:50:00,
2013-01-17 21:51:00,20.1,14.6,30.47,NW,308,4.4,4.4,79,0.00,,,0.00,0.00,VWS V14.01,2013-01-18 03:51:00,
2013-01-17 21:54:00,20.4,14.9,30.47,WNW,291,0.0,1.1,79,0.00,,,0.00,0.00,VWS V14.01,2013-01-18 03:54:00,
2013-01-17 21:55:00,20.5,15.0,30.47,WNW,291,2.2,2.2,79,0.00,,,0.00,0.00,VWS V14.01,2013-01-18 03:55:00,
2013-01-17 21:58:00,20.6,14.8,30.47,WNW,291,1.1,2.2,78,0.00,,,0.00,0.00,VWS V14.01,2013-01-18 03:58:00,
2013-01-17 22:00:00,20.7,14.9,30.47,WNW,291,1.1,2.2,78,0.00,,,0.00,0.00,VWS V14.01,2013-01-18 04:00:00,
2013-01-17 22:03:00,20.8,14.7,30.47,WNW,291,0.0,2.2,77,0.00,,,0.00,0.00,VWS V14.01,2013-01-18 04:03:00,
2013-01-17 22:05:00,20.8,14.7,30.46,WNW,291,1.1,1.1,77,0.00,,,0.00,0.00,VWS V14.01,2013-01-18 04:05:00,
2013-01-17 22:08:00,20.8,15.0,30.47,WNW,289,2.2,3.3,78,0.00,,,0.00,0.00,VWS V14.01,2013-01-18 04:08:00,
2013-01-17 22:10:00,20.6,14.6,30.47,WNW,289,1.1,1.1,77,0.00,,,0.00,0.00,VWS V14.01,2013-01-18 04:10:00,
2013-01-17 22:11:00,20.6,14.6,30.47,WNW,289,2.2,2.2,77,0.00,,,0.00,0.00,VWS V14.01,2013-01-18 04:11:00,
2013-01-17 22:13:00,20.5,14.7,30.47,WNW,288,1.1,2.2,78,0.00,,,0.00,0.00,VWS V14.01,2013-01-18 04:13:00,
2013-01-17 22:15:00,20.3,14.6,30.47,WNW,285,2.2,3.3,78,0.00,,,0.00,0.00,VWS V14.01,2013-01-18 04:15:00,
2013-01-17 22:16:00,20.2,14.4,30.47,West,272,3.3,4.4,78,0.00,,,0.00,0.00,VWS V14.01,2013-01-18 04:16:00,
2013-01-17 22:18:00,20.0,14.3,30.47,West,271,2.2,2.2,78,0.00,,,0.00,0.00,VWS V14.01,2013-01-18 04:18:00,
2013-01-17 22:21:00,20.1,14.6,30.47,WSW,258,1.1,2.2,79,0.00,,,0.00,0.00,VWS V14.01,2013-01-18 04:21:00,
2013-01-17 22:23:00,20.1,14.6,30.47,WSW,253,4.4,4.4,79,0.00,,,0.00,0.00,VWS V14.01,2013-01-18 04:23:00,
2013-01-17 22:24:00,20.1,14.6,30.47,WSW,251,3.3,3.3,79,0.00,,,0.00,0.00,VWS V14.01,2013-01-18 04:24:00,
2013-01-17 22:26:00,20.2,14.7,30.47,WSW,239,3.3,4.4,79,0.00,,,0.00,0.00,VWS V14.01,2013-01-18 04:26:00,
2013-01-17 22:27:00,20.2,14.7,30.47,WSW,239,4.4,4.4,79,0.00,,,0.00,0.00,VWS V14.01,2013-01-18 04:27:00,
2013-01-17 22:28:00,20.3,14.8,30.47,WSW,243,3.3,3.3,79,0.00,,,0.00,0.00,VWS V14.01,2013-01-18 04:28:00,
2013-01-17 22:29:00,20.3,14.8,30.47,WSW,242,4.4,5.5,79,0.00,,,0.00,0.00,VWS V14.01,2013-01-18 04:29:00,
2013-01-17 22:31:00,20.4,14.6,30.47,WSW,239,3.3,3.3,78,0.00,,,0.00,0.00,VWS V14.01,2013-01-18 04:31:00,
2013-01-17 22:32:00,20.3,14.6,30.47,WSW,247,3.3,4.4,78,0.00,,,0.00,0.00,VWS V14.01,2013-01-18 04:32:00,
2013-01-17 22:34:00,20.3,14.6,30.47,WSW,241,2.2,4.4,78,0.00,,,0.00,0.00,VWS V14.01,2013-01-18 04:34:00,
2013-01-17 22:37:00,20.3,14.6,30.47,WSW,241,1.1,2.2,78,0.00,,,0.00,0.00,VWS V14.01,2013-01-18 04:37:00,
2013-01-17 22:40:00,20.3,14.6,30.47,WSW,243,2.2,3.3,78,0.00,,,0.00,0.00,VWS V14.01,2013-01-18 04:40:00,
2013-01-17 22:42:00,20.3,14.8,30.47,WSW,244,1.1,3.3,79,0.00,,,0.00,0.00,VWS V14.01,2013-01-18 04:42:00,
2013-01-17 22:45:00,20.1,14.4,30.47,WSW,244,0.0,1.1,78,0.00,,,0.00,0.00,VWS V14.01,2013-01-18 04:45:00,
2013-01-17 22:47:00,20.0,14.6,30.46,WSW,244,0.0,1.1,79,0.00,,,0.00,0.00,VWS V14.01,2013-01-18 04:47:00,
2013-01-17 22:50:00,20.1,14.6,30.46,WSW,244,1.1,2.2,79,0.00,,,0.00,0.00,VWS V14.01,2013-01-18 04:50:00,
2013-01-17 22:51:00,20.1,14.6,30.46,WSW,244,1.1,2.2,79,0.00,,,0.00,0.00,VWS V14.01,2013-01-18 04:51:00,
2013-01-17 22:52:00,20.1,14.6,30.46,WSW,244,3.3,3.3,79,0.00,,,0.00,0.00,VWS V14.01,2013-01-18 04:52:00,
2013-01-17 22:55:00,20.1,14.6,30.46,WSW,251,0.0,2.2,79,0.00,,,0.00,0.00,VWS V14.01,2013-01-18 04:55:00,
2013-01-17 22:56:00,20.2,14.7,30.46,WSW,251,0.0,0.0,79,0.00,,,0.00,0.00,VWS V14.01,2013-01-18 04:56:00,
2013-01-17 22:57:00,20.2,14.7,30.46,WSW,251,1.1,1.1,79,0.00,,,0.00,0.00,VWS V14.01,2013-01-18 04:57:00,
2013-01-17 23:00:00,20.2,14.7,30.46,WSW,251,2.2,3.3,79,0.00,,,0.00,0.00,VWS V14.01,2013-01-18 05:00:00,
2013-01-17 23:01:00,20.1,14.4,30.46,WSW,251,1.1,2.2,78,0.00,,,0.00,0.00,VWS V14.01,2013-01-18 05:01:00,
2013-01-17 23:03:00,20.0,14.6,30.46,WSW,249,2.2,2.2,79,0.00,,,0.00,0.00,VWS V14.01,2013-01-18 05:03:00,
2013-01-17 23:06:00,20.1,14.6,30.45,WSW,250,1.1,2.2,79,0.00,,,0.00,0.00,VWS V14.01,2013-01-18 05:06:00,
2013-01-17 23:07:00,20.1,14.6,30.45,WSW,251,2.2,2.2,79,0.00,,,0.00,0.00,VWS V14.01,2013-01-18 05:07:00,
2013-01-17 23:08:00,20.2,14.7,30.45,WSW,253,1.1,2.2,79,0.00,,,0.00,0.00,VWS V14.01,2013-01-18 05:08:00,
2013-01-17 23:09:00,20.2,14.7,30.46,WSW,254,1.1,2.2,79,0.00,,,0.00,0.00,VWS V14.01,2013-01-18 05:09:00,
2013-01-17 23:11:00,20.2,14.7,30.46,WSW,246,4.4,4.4,79,0.00,,,0.00,0.00,VWS V14.01,2013-01-18 05:11:00,
2013-01-17 23:12:00,20.3,14.8,30.46,WSW,250,3.3,5.5,79,0.00,,,0.00,0.00,VWS V14.01,2013-01-18 05:12:00,
2013-01-17 23:13:00,20.4,14.9,30.46,WSW,256,3.3,4.4,79,0.00,,,0.00,0.00,VWS V14.01,2013-01-18 05:13:00,
2013-01-17 23:14:00,20.4,14.9,30.46,WSW,251,3.3,4.4,79,0.00,,,0.00,0.00,VWS V14.01,2013-01-18 05:14:00,
2013-01-17 23:17:00,20.6,15.1,30.46,WSW,249,2.2,4.4,79,0.00,,,0.00,0.00,VWS V14.01,2013-01-18 05:17:00,
2013-01-17 23:18:00,20.6,15.1,30.46,WSW,245,4.4,4.4,79,0.00,,,0.00,0.00,VWS V14.01,2013-01-18 05:18:00,
2013-01-17 23:19:00,20.6,14.8,30.46,WSW,245,3.3,4.4,78,0.00,,,0.00,0.00,VWS V14.01,2013-01-18 05:19:00,
2013-01-17 23:22:00,20.5,15.0,30.46,WSW,249,2.2,3.3,79,0.00,,,0.00,0.00,VWS V14.01,2013-01-18 05:22:00,
2013-01-17 23:24:00,20.6,15.1,30.46,WSW,248,2.2,3.3,79,0.00,,,0.00,0.00,VWS V14.01,2013-01-18 05:24:00,
2013-01-17 23:27:00,20.7,15.2,30.46,WSW,249,4.4,4.4,79,0.00,,,0.00,0.00,VWS V14.01,2013-01-18 05:27:00,
2013-01-17 23:29:00,20.7,15.2,30.46,WSW,253,2.2,4.4,79,0.00,,,0.00,0.00,VWS V14.01,2013-01-18 05:29:00,
2013-01-17 23:31:00,20.7,15.2,30.46,WSW,237,4.4,4.4,79,0.00,,,0.00,0.00,VWS V14.01,2013-01-18 05:31:00,
2013-01-17 23:32:00,20.7,15.2,30.46,WSW,247,4.4,4.4,79,0.00,,,0.00,0.00,VWS V14.01,2013-01-18 05:32:00,
2013-01-17 23:34:00,20.7,15.2,30.46,WSW,237,4.4,5.5,79,0.00,,,0.00,0.00,VWS V14.01,2013-01-18 05:34:00,
2013-01-17 23:35:00,20.7,15.2,30.46,WSW,245,2.2,4.4,79,0.00,,,0.00,0.00,VWS V14.01,2013-01-18 05:35:00,
2013-01-17 23:36:00,20.7,15.2,30.46,WSW,248,4.4,4.4,79,0.00,,,0.00,0.00,VWS V14.01,2013-01-18 05:36:00,
2013-01-17 23:38:00,20.7,15.2,30.46,WSW,238,3.3,4.4,79,0.00,,,0.00,0.00,VWS V14.01,2013-01-18 05:38:00,
2013-01-17 23:40:00,20.7,15.2,30.46,SW,234,3.3,5.5,79,0.00,,,0.00,0.00,VWS V14.01,2013-01-18 05:40:00,
2013-01-17 23:41:00,20.8,15.3,30.46,WSW,253,2.2,4.4,79,0.00,,,0.00,0.00,VWS V14.01,2013-01-18 05:41:00,
2013-01-17 23:42:00,20.7,15.2,30.46,WSW,243,4.4,4.4,79,0.00,,,0.00,0.00,VWS V14.01,2013-01-18 05:42:00,
2013-01-17 23:43:00,20.7,15.2,30.46,WSW,258,2.2,4.4,79,0.00,,,0.00,0.00,VWS V14.01,2013-01-18 05:43:00,
2013-01-17 23:45:00,20.6,15.1,30.46,SW,223,2.2,4.4,79,0.00,,,0.00,0.00,VWS V14.01,2013-01-18 05:45:00,
2013-01-17 23:47:00,20.5,15.0,30.46,WSW,237,3.3,6.6,79,0.00,,,0.00,0.00,VWS V14.01,2013-01-18 05:47:00,
2013-01-17 23:48:00,20.4,14.9,30.46,SW,232,4.4,5.5,79,0.00,,,0.00,0.00,VWS V14.01,2013-01-18 05:48:00,
2013-01-17 23:51:00,20.2,14.7,30.46,WSW,240,5.5,5.5,79,0.00,,,0.00,0.00,VWS V14.01,2013-01-18 05:51:00,
2013-01-17 23:53:00,20.2,15.0,30.46,WSW,249,3.3,4.4,80,0.00,,,0.00,0.00,VWS V14.01,2013-01-18 05:53:00,
2013-01-17 23:56:00,20.2,15.0,30.47,WSW,249,4.4,4.4,80,0.00,,,0.00,0.00,VWS V14.01,2013-01-18 05:56:00,
2013-01-17 23:58:00,20.3,15.1,30.47,WSW,247,4.4,4.4,80,0.00,,,0.00,0.00,VWS V14.01,2013-01-18 05:58:00,
2013-01-17 23:59:00,20.4,15.2,30.47,WSW,252,3.3,5.5,80,0.00,,,0.00,0.00,VWS V14.01,2013-01-18 05:59:00,